<?xml version="1.0" encoding="UTF-8" standalone="no" ?>
<gpx xmlns="http://www.topografix.com/GPX/1/1" xmlns:xsi="http://www.w3.org/2001/XMLSchema-instance" xsi:schemaLocation="http://www.topografix.com/GPX/1/1 http://www.topografix.com/GPX/1/1/gpx.xsd" version="1.1" creator="VisuGPX - https://www.visugpx.com">
  <metadata>
    <name>Course à pied dans l'après-midi</name>
  </metadata>
  <trk>
    <name><![CDATA[Course à pied dans l'après-midi_1]]></name>
    <trkseg>
      <trkpt lat="43.63311" lon="1.38445">
        <ele>153</ele>
        <time>2025-04-09T11:33:12Z</time>
      </trkpt>
      <trkpt lat="43.63311" lon="1.38443">
        <ele>153</ele>
        <time>2025-04-09T11:33:13Z</time>
      </trkpt>
      <trkpt lat="43.6331" lon="1.3844">
        <ele>153</ele>
        <time>2025-04-09T11:33:14Z</time>
      </trkpt>
      <trkpt lat="43.6331" lon="1.38438">
        <ele>153</ele>
        <time>2025-04-09T11:33:15Z</time>
      </trkpt>
      <trkpt lat="43.6331" lon="1.38435">
        <ele>153</ele>
        <time>2025-04-09T11:33:16Z</time>
      </trkpt>
      <trkpt lat="43.6331" lon="1.38432">
        <ele>153</ele>
        <time>2025-04-09T11:33:17Z</time>
      </trkpt>
      <trkpt lat="43.63311" lon="1.38429">
        <ele>153</ele>
        <time>2025-04-09T11:33:18Z</time>
      </trkpt>
      <trkpt lat="43.63311" lon="1.38429">
        <ele>153</ele>
        <time>2025-04-09T11:33:19Z</time>
      </trkpt>
      <trkpt lat="43.63311" lon="1.38429">
        <ele>153</ele>
        <time>2025-04-09T11:33:20Z</time>
      </trkpt>
      <trkpt lat="43.63312" lon="1.38415">
        <ele>153</ele>
        <time>2025-04-09T11:33:22Z</time>
      </trkpt>
      <trkpt lat="43.63311" lon="1.38411">
        <ele>153</ele>
        <time>2025-04-09T11:33:23Z</time>
      </trkpt>
      <trkpt lat="43.63311" lon="1.38408">
        <ele>153</ele>
        <time>2025-04-09T11:33:24Z</time>
      </trkpt>
      <trkpt lat="43.6331" lon="1.38405">
        <ele>153</ele>
        <time>2025-04-09T11:33:25Z</time>
      </trkpt>
      <trkpt lat="43.6331" lon="1.38402">
        <ele>153</ele>
        <time>2025-04-09T11:33:26Z</time>
      </trkpt>
      <trkpt lat="43.6331" lon="1.38402">
        <ele>153</ele>
        <time>2025-04-09T11:33:27Z</time>
      </trkpt>
      <trkpt lat="43.6331" lon="1.38402">
        <ele>153</ele>
        <time>2025-04-09T11:33:29Z</time>
      </trkpt>
      <trkpt lat="43.63304" lon="1.3839">
        <ele>153</ele>
        <time>2025-04-09T11:33:31Z</time>
      </trkpt>
      <trkpt lat="43.63303" lon="1.38388">
        <ele>153</ele>
        <time>2025-04-09T11:33:32Z</time>
      </trkpt>
      <trkpt lat="43.63302" lon="1.38385">
        <ele>153</ele>
        <time>2025-04-09T11:33:33Z</time>
      </trkpt>
      <trkpt lat="43.633" lon="1.38383">
        <ele>153</ele>
        <time>2025-04-09T11:33:34Z</time>
      </trkpt>
      <trkpt lat="43.63299" lon="1.38381">
        <ele>153</ele>
        <time>2025-04-09T11:33:35Z</time>
      </trkpt>
      <trkpt lat="43.63298" lon="1.38378">
        <ele>153</ele>
        <time>2025-04-09T11:33:36Z</time>
      </trkpt>
      <trkpt lat="43.63297" lon="1.38376">
        <ele>153</ele>
        <time>2025-04-09T11:33:37Z</time>
      </trkpt>
      <trkpt lat="43.63295" lon="1.38375">
        <ele>153</ele>
        <time>2025-04-09T11:33:38Z</time>
      </trkpt>
      <trkpt lat="43.63294" lon="1.38372">
        <ele>153</ele>
        <time>2025-04-09T11:33:39Z</time>
      </trkpt>
      <trkpt lat="43.63293" lon="1.3837">
        <ele>153</ele>
        <time>2025-04-09T11:33:40Z</time>
      </trkpt>
      <trkpt lat="43.63292" lon="1.38368">
        <ele>153</ele>
        <time>2025-04-09T11:33:41Z</time>
      </trkpt>
      <trkpt lat="43.63291" lon="1.38365">
        <ele>153</ele>
        <time>2025-04-09T11:33:42Z</time>
      </trkpt>
      <trkpt lat="43.6329" lon="1.38363">
        <ele>153</ele>
        <time>2025-04-09T11:33:43Z</time>
      </trkpt>
      <trkpt lat="43.63288" lon="1.38359">
        <ele>153</ele>
        <time>2025-04-09T11:33:44Z</time>
      </trkpt>
      <trkpt lat="43.63287" lon="1.38358">
        <ele>153</ele>
        <time>2025-04-09T11:33:45Z</time>
      </trkpt>
      <trkpt lat="43.63286" lon="1.38355">
        <ele>153</ele>
        <time>2025-04-09T11:33:46Z</time>
      </trkpt>
      <trkpt lat="43.63284" lon="1.38352">
        <ele>153</ele>
        <time>2025-04-09T11:33:47Z</time>
      </trkpt>
      <trkpt lat="43.63283" lon="1.38349">
        <ele>153</ele>
        <time>2025-04-09T11:33:48Z</time>
      </trkpt>
      <trkpt lat="43.63281" lon="1.38345">
        <ele>153</ele>
        <time>2025-04-09T11:33:49Z</time>
      </trkpt>
      <trkpt lat="43.63281" lon="1.38345">
        <ele>153</ele>
        <time>2025-04-09T11:33:50Z</time>
      </trkpt>
      <trkpt lat="43.6328" lon="1.38342">
        <ele>153</ele>
        <time>2025-04-09T11:33:51Z</time>
      </trkpt>
      <trkpt lat="43.63278" lon="1.38339">
        <ele>153</ele>
        <time>2025-04-09T11:33:52Z</time>
      </trkpt>
      <trkpt lat="43.63277" lon="1.38335">
        <ele>153</ele>
        <time>2025-04-09T11:33:53Z</time>
      </trkpt>
      <trkpt lat="43.63275" lon="1.38332">
        <ele>153</ele>
        <time>2025-04-09T11:33:54Z</time>
      </trkpt>
      <trkpt lat="43.63275" lon="1.38332">
        <ele>153</ele>
        <time>2025-04-09T11:33:55Z</time>
      </trkpt>
      <trkpt lat="43.63272" lon="1.38319">
        <ele>153</ele>
        <time>2025-04-09T11:33:56Z</time>
      </trkpt>
      <trkpt lat="43.63272" lon="1.38319">
        <ele>153</ele>
        <time>2025-04-09T11:33:58Z</time>
      </trkpt>
      <trkpt lat="43.63272" lon="1.38314">
        <ele>153</ele>
        <time>2025-04-09T11:34:00Z</time>
      </trkpt>
      <trkpt lat="43.63272" lon="1.38309">
        <ele>153</ele>
        <time>2025-04-09T11:34:01Z</time>
      </trkpt>
      <trkpt lat="43.63272" lon="1.38305">
        <ele>153</ele>
        <time>2025-04-09T11:34:02Z</time>
      </trkpt>
      <trkpt lat="43.63272" lon="1.38305">
        <ele>153</ele>
        <time>2025-04-09T11:34:03Z</time>
      </trkpt>
      <trkpt lat="43.63272" lon="1.38305">
        <ele>153</ele>
        <time>2025-04-09T11:34:04Z</time>
      </trkpt>
      <trkpt lat="43.63272" lon="1.38305">
        <ele>153</ele>
        <time>2025-04-09T11:34:05Z</time>
      </trkpt>
      <trkpt lat="43.63274" lon="1.38289">
        <ele>153</ele>
        <time>2025-04-09T11:34:07Z</time>
      </trkpt>
      <trkpt lat="43.63274" lon="1.38285">
        <ele>153</ele>
        <time>2025-04-09T11:34:09Z</time>
      </trkpt>
      <trkpt lat="43.63274" lon="1.3828">
        <ele>153</ele>
        <time>2025-04-09T11:34:10Z</time>
      </trkpt>
      <trkpt lat="43.63275" lon="1.38275">
        <ele>153</ele>
        <time>2025-04-09T11:34:11Z</time>
      </trkpt>
      <trkpt lat="43.63275" lon="1.38272">
        <ele>153</ele>
        <time>2025-04-09T11:34:12Z</time>
      </trkpt>
      <trkpt lat="43.63275" lon="1.38268">
        <ele>153</ele>
        <time>2025-04-09T11:34:13Z</time>
      </trkpt>
      <trkpt lat="43.63275" lon="1.38265">
        <ele>153</ele>
        <time>2025-04-09T11:34:14Z</time>
      </trkpt>
      <trkpt lat="43.63275" lon="1.38262">
        <ele>153</ele>
        <time>2025-04-09T11:34:15Z</time>
      </trkpt>
      <trkpt lat="43.63276" lon="1.38259">
        <ele>153</ele>
        <time>2025-04-09T11:34:16Z</time>
      </trkpt>
      <trkpt lat="43.63276" lon="1.38256">
        <ele>153</ele>
        <time>2025-04-09T11:34:17Z</time>
      </trkpt>
      <trkpt lat="43.63276" lon="1.38252">
        <ele>153</ele>
        <time>2025-04-09T11:34:18Z</time>
      </trkpt>
      <trkpt lat="43.63276" lon="1.38249">
        <ele>153</ele>
        <time>2025-04-09T11:34:19Z</time>
      </trkpt>
      <trkpt lat="43.63276" lon="1.38245">
        <ele>153</ele>
        <time>2025-04-09T11:34:20Z</time>
      </trkpt>
      <trkpt lat="43.63277" lon="1.38242">
        <ele>153</ele>
        <time>2025-04-09T11:34:21Z</time>
      </trkpt>
      <trkpt lat="43.63277" lon="1.38239">
        <ele>153</ele>
        <time>2025-04-09T11:34:22Z</time>
      </trkpt>
      <trkpt lat="43.63277" lon="1.38235">
        <ele>153</ele>
        <time>2025-04-09T11:34:23Z</time>
      </trkpt>
      <trkpt lat="43.63277" lon="1.38235">
        <ele>153</ele>
        <time>2025-04-09T11:34:24Z</time>
      </trkpt>
      <trkpt lat="43.63277" lon="1.38235">
        <ele>153</ele>
        <time>2025-04-09T11:34:25Z</time>
      </trkpt>
      <trkpt lat="43.63277" lon="1.38235">
        <ele>153</ele>
        <time>2025-04-09T11:34:26Z</time>
      </trkpt>
      <trkpt lat="43.63286" lon="1.38229">
        <ele>153</ele>
        <time>2025-04-09T11:34:28Z</time>
      </trkpt>
      <trkpt lat="43.63287" lon="1.38229">
        <ele>153</ele>
        <time>2025-04-09T11:34:29Z</time>
      </trkpt>
      <trkpt lat="43.63288" lon="1.38229">
        <ele>153</ele>
        <time>2025-04-09T11:34:30Z</time>
      </trkpt>
      <trkpt lat="43.63289" lon="1.38229">
        <ele>153</ele>
        <time>2025-04-09T11:34:31Z</time>
      </trkpt>
      <trkpt lat="43.6329" lon="1.38229">
        <ele>153</ele>
        <time>2025-04-09T11:34:32Z</time>
      </trkpt>
      <trkpt lat="43.63299" lon="1.3823">
        <ele>154</ele>
        <time>2025-04-09T11:34:34Z</time>
      </trkpt>
      <trkpt lat="43.63301" lon="1.38231">
        <ele>154</ele>
        <time>2025-04-09T11:34:35Z</time>
      </trkpt>
      <trkpt lat="43.63302" lon="1.38232">
        <ele>154</ele>
        <time>2025-04-09T11:34:36Z</time>
      </trkpt>
      <trkpt lat="43.63309" lon="1.38236">
        <ele>154</ele>
        <time>2025-04-09T11:34:37Z</time>
      </trkpt>
      <trkpt lat="43.63311" lon="1.38237">
        <ele>154</ele>
        <time>2025-04-09T11:34:38Z</time>
      </trkpt>
      <trkpt lat="43.63313" lon="1.38239">
        <ele>154</ele>
        <time>2025-04-09T11:34:39Z</time>
      </trkpt>
      <trkpt lat="43.63314" lon="1.38241">
        <ele>154</ele>
        <time>2025-04-09T11:34:40Z</time>
      </trkpt>
      <trkpt lat="43.63316" lon="1.38242">
        <ele>154</ele>
        <time>2025-04-09T11:34:41Z</time>
      </trkpt>
      <trkpt lat="43.63319" lon="1.38244">
        <ele>154</ele>
        <time>2025-04-09T11:34:42Z</time>
      </trkpt>
      <trkpt lat="43.63321" lon="1.38246">
        <ele>154</ele>
        <time>2025-04-09T11:34:43Z</time>
      </trkpt>
      <trkpt lat="43.63323" lon="1.38248">
        <ele>153</ele>
        <time>2025-04-09T11:34:44Z</time>
      </trkpt>
      <trkpt lat="43.63325" lon="1.38248">
        <ele>153</ele>
        <time>2025-04-09T11:34:46Z</time>
      </trkpt>
      <trkpt lat="43.63326" lon="1.38248">
        <ele>153</ele>
        <time>2025-04-09T11:34:47Z</time>
      </trkpt>
      <trkpt lat="43.63327" lon="1.38248">
        <ele>153</ele>
        <time>2025-04-09T11:34:48Z</time>
      </trkpt>
      <trkpt lat="43.63329" lon="1.38249">
        <ele>153</ele>
        <time>2025-04-09T11:34:49Z</time>
      </trkpt>
      <trkpt lat="43.63334" lon="1.3825">
        <ele>153</ele>
        <time>2025-04-09T11:34:50Z</time>
      </trkpt>
      <trkpt lat="43.63334" lon="1.3825">
        <ele>153</ele>
        <time>2025-04-09T11:34:51Z</time>
      </trkpt>
      <trkpt lat="43.63342" lon="1.38243">
        <ele>153</ele>
        <time>2025-04-09T11:34:53Z</time>
      </trkpt>
      <trkpt lat="43.63344" lon="1.3824">
        <ele>153</ele>
        <time>2025-04-09T11:34:54Z</time>
      </trkpt>
      <trkpt lat="43.63345" lon="1.38238">
        <ele>153</ele>
        <time>2025-04-09T11:34:55Z</time>
      </trkpt>
      <trkpt lat="43.63347" lon="1.38236">
        <ele>153</ele>
        <time>2025-04-09T11:34:56Z</time>
      </trkpt>
      <trkpt lat="43.63348" lon="1.38233">
        <ele>152</ele>
        <time>2025-04-09T11:34:57Z</time>
      </trkpt>
      <trkpt lat="43.6335" lon="1.38231">
        <ele>152</ele>
        <time>2025-04-09T11:34:58Z</time>
      </trkpt>
      <trkpt lat="43.63353" lon="1.38224">
        <ele>152</ele>
        <time>2025-04-09T11:35:00Z</time>
      </trkpt>
      <trkpt lat="43.63354" lon="1.38223">
        <ele>152</ele>
        <time>2025-04-09T11:35:01Z</time>
      </trkpt>
      <trkpt lat="43.63356" lon="1.38219">
        <ele>152</ele>
        <time>2025-04-09T11:35:02Z</time>
      </trkpt>
      <trkpt lat="43.63356" lon="1.38217">
        <ele>152</ele>
        <time>2025-04-09T11:35:03Z</time>
      </trkpt>
      <trkpt lat="43.63357" lon="1.38214">
        <ele>152</ele>
        <time>2025-04-09T11:35:04Z</time>
      </trkpt>
      <trkpt lat="43.63358" lon="1.3821">
        <ele>152</ele>
        <time>2025-04-09T11:35:05Z</time>
      </trkpt>
      <trkpt lat="43.63358" lon="1.38209">
        <ele>152</ele>
        <time>2025-04-09T11:35:06Z</time>
      </trkpt>
      <trkpt lat="43.63359" lon="1.38206">
        <ele>152</ele>
        <time>2025-04-09T11:35:07Z</time>
      </trkpt>
      <trkpt lat="43.63359" lon="1.38202">
        <ele>152</ele>
        <time>2025-04-09T11:35:08Z</time>
      </trkpt>
      <trkpt lat="43.6336" lon="1.38199">
        <ele>152</ele>
        <time>2025-04-09T11:35:09Z</time>
      </trkpt>
      <trkpt lat="43.63361" lon="1.38196">
        <ele>152</ele>
        <time>2025-04-09T11:35:10Z</time>
      </trkpt>
      <trkpt lat="43.63361" lon="1.38192">
        <ele>152</ele>
        <time>2025-04-09T11:35:12Z</time>
      </trkpt>
      <trkpt lat="43.6336" lon="1.38188">
        <ele>152</ele>
        <time>2025-04-09T11:35:13Z</time>
      </trkpt>
      <trkpt lat="43.6336" lon="1.38183">
        <ele>152</ele>
        <time>2025-04-09T11:35:14Z</time>
      </trkpt>
      <trkpt lat="43.63362" lon="1.38181">
        <ele>152</ele>
        <time>2025-04-09T11:35:15Z</time>
      </trkpt>
      <trkpt lat="43.63363" lon="1.38178">
        <ele>152</ele>
        <time>2025-04-09T11:35:16Z</time>
      </trkpt>
      <trkpt lat="43.63365" lon="1.38176">
        <ele>152</ele>
        <time>2025-04-09T11:35:17Z</time>
      </trkpt>
      <trkpt lat="43.63366" lon="1.38174">
        <ele>152</ele>
        <time>2025-04-09T11:35:18Z</time>
      </trkpt>
      <trkpt lat="43.63368" lon="1.38171">
        <ele>153</ele>
        <time>2025-04-09T11:35:19Z</time>
      </trkpt>
      <trkpt lat="43.63371" lon="1.38169">
        <ele>153</ele>
        <time>2025-04-09T11:35:20Z</time>
      </trkpt>
      <trkpt lat="43.63375" lon="1.38167">
        <ele>153</ele>
        <time>2025-04-09T11:35:21Z</time>
      </trkpt>
      <trkpt lat="43.63378" lon="1.38164">
        <ele>153</ele>
        <time>2025-04-09T11:35:22Z</time>
      </trkpt>
      <trkpt lat="43.63383" lon="1.38162">
        <ele>153</ele>
        <time>2025-04-09T11:35:24Z</time>
      </trkpt>
      <trkpt lat="43.63387" lon="1.38159">
        <ele>153</ele>
        <time>2025-04-09T11:35:25Z</time>
      </trkpt>
      <trkpt lat="43.63387" lon="1.38158">
        <ele>153</ele>
        <time>2025-04-09T11:35:26Z</time>
      </trkpt>
      <trkpt lat="43.63388" lon="1.38157">
        <ele>153</ele>
        <time>2025-04-09T11:35:27Z</time>
      </trkpt>
      <trkpt lat="43.63388" lon="1.38156">
        <ele>153</ele>
        <time>2025-04-09T11:35:28Z</time>
      </trkpt>
      <trkpt lat="43.63389" lon="1.38154">
        <ele>153</ele>
        <time>2025-04-09T11:35:29Z</time>
      </trkpt>
      <trkpt lat="43.63389" lon="1.38153">
        <ele>153</ele>
        <time>2025-04-09T11:35:31Z</time>
      </trkpt>
      <trkpt lat="43.6339" lon="1.38152">
        <ele>153</ele>
        <time>2025-04-09T11:35:32Z</time>
      </trkpt>
      <trkpt lat="43.63393" lon="1.38142">
        <ele>153</ele>
        <time>2025-04-09T11:35:33Z</time>
      </trkpt>
      <trkpt lat="43.63394" lon="1.38139">
        <ele>153</ele>
        <time>2025-04-09T11:35:34Z</time>
      </trkpt>
      <trkpt lat="43.63396" lon="1.38137">
        <ele>153</ele>
        <time>2025-04-09T11:35:35Z</time>
      </trkpt>
      <trkpt lat="43.63397" lon="1.38134">
        <ele>153</ele>
        <time>2025-04-09T11:35:36Z</time>
      </trkpt>
      <trkpt lat="43.63397" lon="1.38132">
        <ele>153</ele>
        <time>2025-04-09T11:35:37Z</time>
      </trkpt>
      <trkpt lat="43.63398" lon="1.3813">
        <ele>153</ele>
        <time>2025-04-09T11:35:38Z</time>
      </trkpt>
      <trkpt lat="43.63399" lon="1.38129">
        <ele>153</ele>
        <time>2025-04-09T11:35:39Z</time>
      </trkpt>
      <trkpt lat="43.63399" lon="1.38127">
        <ele>153</ele>
        <time>2025-04-09T11:35:40Z</time>
      </trkpt>
      <trkpt lat="43.63403" lon="1.38117">
        <ele>153</ele>
        <time>2025-04-09T11:35:41Z</time>
      </trkpt>
      <trkpt lat="43.63403" lon="1.38113">
        <ele>153</ele>
        <time>2025-04-09T11:35:42Z</time>
      </trkpt>
      <trkpt lat="43.63404" lon="1.38109">
        <ele>153</ele>
        <time>2025-04-09T11:35:44Z</time>
      </trkpt>
      <trkpt lat="43.63405" lon="1.38106">
        <ele>153</ele>
        <time>2025-04-09T11:35:45Z</time>
      </trkpt>
      <trkpt lat="43.63405" lon="1.38104">
        <ele>153</ele>
        <time>2025-04-09T11:35:46Z</time>
      </trkpt>
      <trkpt lat="43.63406" lon="1.38102">
        <ele>153</ele>
        <time>2025-04-09T11:35:47Z</time>
      </trkpt>
      <trkpt lat="43.63406" lon="1.381">
        <ele>153</ele>
        <time>2025-04-09T11:35:48Z</time>
      </trkpt>
      <trkpt lat="43.63407" lon="1.38099">
        <ele>153</ele>
        <time>2025-04-09T11:35:49Z</time>
      </trkpt>
      <trkpt lat="43.63409" lon="1.38089">
        <ele>153</ele>
        <time>2025-04-09T11:35:50Z</time>
      </trkpt>
      <trkpt lat="43.6341" lon="1.38086">
        <ele>153</ele>
        <time>2025-04-09T11:35:51Z</time>
      </trkpt>
      <trkpt lat="43.63411" lon="1.38084">
        <ele>153</ele>
        <time>2025-04-09T11:35:52Z</time>
      </trkpt>
      <trkpt lat="43.63412" lon="1.38081">
        <ele>153</ele>
        <time>2025-04-09T11:35:53Z</time>
      </trkpt>
      <trkpt lat="43.63414" lon="1.38079">
        <ele>153</ele>
        <time>2025-04-09T11:35:54Z</time>
      </trkpt>
      <trkpt lat="43.63416" lon="1.38076">
        <ele>153</ele>
        <time>2025-04-09T11:35:55Z</time>
      </trkpt>
      <trkpt lat="43.63418" lon="1.38073">
        <ele>153</ele>
        <time>2025-04-09T11:35:56Z</time>
      </trkpt>
      <trkpt lat="43.63421" lon="1.3807">
        <ele>153</ele>
        <time>2025-04-09T11:35:57Z</time>
      </trkpt>
      <trkpt lat="43.63423" lon="1.38069">
        <ele>153</ele>
        <time>2025-04-09T11:35:58Z</time>
      </trkpt>
      <trkpt lat="43.63424" lon="1.38068">
        <ele>153</ele>
        <time>2025-04-09T11:35:59Z</time>
      </trkpt>
      <trkpt lat="43.63426" lon="1.38067">
        <ele>153</ele>
        <time>2025-04-09T11:36:01Z</time>
      </trkpt>
      <trkpt lat="43.63428" lon="1.38066">
        <ele>153</ele>
        <time>2025-04-09T11:36:02Z</time>
      </trkpt>
      <trkpt lat="43.6343" lon="1.38065">
        <ele>153</ele>
        <time>2025-04-09T11:36:03Z</time>
      </trkpt>
      <trkpt lat="43.6343" lon="1.38065">
        <ele>153</ele>
        <time>2025-04-09T11:36:04Z</time>
      </trkpt>
      <trkpt lat="43.6343" lon="1.38065">
        <ele>153</ele>
        <time>2025-04-09T11:36:05Z</time>
      </trkpt>
      <trkpt lat="43.63432" lon="1.38052">
        <ele>153</ele>
        <time>2025-04-09T11:36:07Z</time>
      </trkpt>
      <trkpt lat="43.63432" lon="1.38048">
        <ele>153</ele>
        <time>2025-04-09T11:36:08Z</time>
      </trkpt>
      <trkpt lat="43.63432" lon="1.38044">
        <ele>153</ele>
        <time>2025-04-09T11:36:09Z</time>
      </trkpt>
      <trkpt lat="43.63432" lon="1.38041">
        <ele>153</ele>
        <time>2025-04-09T11:36:10Z</time>
      </trkpt>
      <trkpt lat="43.63432" lon="1.38037">
        <ele>153</ele>
        <time>2025-04-09T11:36:11Z</time>
      </trkpt>
      <trkpt lat="43.63434" lon="1.38034">
        <ele>153</ele>
        <time>2025-04-09T11:36:12Z</time>
      </trkpt>
      <trkpt lat="43.63435" lon="1.38032">
        <ele>153</ele>
        <time>2025-04-09T11:36:13Z</time>
      </trkpt>
      <trkpt lat="43.63436" lon="1.38029">
        <ele>153</ele>
        <time>2025-04-09T11:36:14Z</time>
      </trkpt>
      <trkpt lat="43.63437" lon="1.38026">
        <ele>153</ele>
        <time>2025-04-09T11:36:15Z</time>
      </trkpt>
      <trkpt lat="43.63438" lon="1.38025">
        <ele>153</ele>
        <time>2025-04-09T11:36:16Z</time>
      </trkpt>
      <trkpt lat="43.63438" lon="1.38024">
        <ele>153</ele>
        <time>2025-04-09T11:36:17Z</time>
      </trkpt>
      <trkpt lat="43.63439" lon="1.38024">
        <ele>153</ele>
        <time>2025-04-09T11:36:18Z</time>
      </trkpt>
      <trkpt lat="43.63439" lon="1.38023">
        <ele>153</ele>
        <time>2025-04-09T11:36:19Z</time>
      </trkpt>
      <trkpt lat="43.6344" lon="1.38022">
        <ele>153</ele>
        <time>2025-04-09T11:36:20Z</time>
      </trkpt>
      <trkpt lat="43.63447" lon="1.38013">
        <ele>153</ele>
        <time>2025-04-09T11:36:22Z</time>
      </trkpt>
      <trkpt lat="43.63449" lon="1.38011">
        <ele>153</ele>
        <time>2025-04-09T11:36:23Z</time>
      </trkpt>
      <trkpt lat="43.63452" lon="1.38009">
        <ele>153</ele>
        <time>2025-04-09T11:36:24Z</time>
      </trkpt>
      <trkpt lat="43.63454" lon="1.38006">
        <ele>153</ele>
        <time>2025-04-09T11:36:25Z</time>
      </trkpt>
      <trkpt lat="43.63457" lon="1.38005">
        <ele>153</ele>
        <time>2025-04-09T11:36:27Z</time>
      </trkpt>
      <trkpt lat="43.63459" lon="1.38003">
        <ele>153</ele>
        <time>2025-04-09T11:36:28Z</time>
      </trkpt>
      <trkpt lat="43.63467" lon="1.38001">
        <ele>153</ele>
        <time>2025-04-09T11:36:29Z</time>
      </trkpt>
      <trkpt lat="43.63469" lon="1.38003">
        <ele>153</ele>
        <time>2025-04-09T11:36:30Z</time>
      </trkpt>
      <trkpt lat="43.63471" lon="1.38004">
        <ele>153</ele>
        <time>2025-04-09T11:36:31Z</time>
      </trkpt>
      <trkpt lat="43.63472" lon="1.38006">
        <ele>153</ele>
        <time>2025-04-09T11:36:32Z</time>
      </trkpt>
      <trkpt lat="43.63473" lon="1.38009">
        <ele>153</ele>
        <time>2025-04-09T11:36:34Z</time>
      </trkpt>
      <trkpt lat="43.63474" lon="1.38011">
        <ele>153</ele>
        <time>2025-04-09T11:36:35Z</time>
      </trkpt>
      <trkpt lat="43.63475" lon="1.38014">
        <ele>153</ele>
        <time>2025-04-09T11:36:36Z</time>
      </trkpt>
      <trkpt lat="43.63478" lon="1.38025">
        <ele>153</ele>
        <time>2025-04-09T11:36:37Z</time>
      </trkpt>
      <trkpt lat="43.6348" lon="1.3803">
        <ele>153</ele>
        <time>2025-04-09T11:36:38Z</time>
      </trkpt>
      <trkpt lat="43.63481" lon="1.38034">
        <ele>153</ele>
        <time>2025-04-09T11:36:39Z</time>
      </trkpt>
      <trkpt lat="43.63482" lon="1.38037">
        <ele>153</ele>
        <time>2025-04-09T11:36:41Z</time>
      </trkpt>
      <trkpt lat="43.63484" lon="1.38041">
        <ele>153</ele>
        <time>2025-04-09T11:36:42Z</time>
      </trkpt>
      <trkpt lat="43.63486" lon="1.38044">
        <ele>153</ele>
        <time>2025-04-09T11:36:43Z</time>
      </trkpt>
      <trkpt lat="43.63487" lon="1.38047">
        <ele>153</ele>
        <time>2025-04-09T11:36:44Z</time>
      </trkpt>
      <trkpt lat="43.63488" lon="1.3805">
        <ele>153</ele>
        <time>2025-04-09T11:36:45Z</time>
      </trkpt>
      <trkpt lat="43.63489" lon="1.38052">
        <ele>153</ele>
        <time>2025-04-09T11:36:46Z</time>
      </trkpt>
      <trkpt lat="43.6349" lon="1.38055">
        <ele>153</ele>
        <time>2025-04-09T11:36:47Z</time>
      </trkpt>
      <trkpt lat="43.63491" lon="1.38058">
        <ele>154</ele>
        <time>2025-04-09T11:36:48Z</time>
      </trkpt>
      <trkpt lat="43.63491" lon="1.3806">
        <ele>154</ele>
        <time>2025-04-09T11:36:49Z</time>
      </trkpt>
      <trkpt lat="43.63492" lon="1.38062">
        <ele>153</ele>
        <time>2025-04-09T11:36:50Z</time>
      </trkpt>
      <trkpt lat="43.63492" lon="1.38064">
        <ele>153</ele>
        <time>2025-04-09T11:36:51Z</time>
      </trkpt>
      <trkpt lat="43.63494" lon="1.38071">
        <ele>153</ele>
        <time>2025-04-09T11:36:52Z</time>
      </trkpt>
      <trkpt lat="43.63494" lon="1.38071">
        <ele>153</ele>
        <time>2025-04-09T11:36:53Z</time>
      </trkpt>
      <trkpt lat="43.63499" lon="1.38083">
        <ele>153</ele>
        <time>2025-04-09T11:36:55Z</time>
      </trkpt>
      <trkpt lat="43.63499" lon="1.38083">
        <ele>153</ele>
        <time>2025-04-09T11:36:56Z</time>
      </trkpt>
      <trkpt lat="43.63499" lon="1.38083">
        <ele>153</ele>
        <time>2025-04-09T11:36:57Z</time>
      </trkpt>
      <trkpt lat="43.63499" lon="1.38083">
        <ele>153</ele>
        <time>2025-04-09T11:36:58Z</time>
      </trkpt>
      <trkpt lat="43.63509" lon="1.38086">
        <ele>153</ele>
        <time>2025-04-09T11:37:00Z</time>
      </trkpt>
      <trkpt lat="43.63511" lon="1.38083">
        <ele>153</ele>
        <time>2025-04-09T11:37:01Z</time>
      </trkpt>
      <trkpt lat="43.63512" lon="1.38081">
        <ele>153</ele>
        <time>2025-04-09T11:37:02Z</time>
      </trkpt>
      <trkpt lat="43.63514" lon="1.38078">
        <ele>153</ele>
        <time>2025-04-09T11:37:03Z</time>
      </trkpt>
      <trkpt lat="43.63516" lon="1.38076">
        <ele>153</ele>
        <time>2025-04-09T11:37:04Z</time>
      </trkpt>
      <trkpt lat="43.63519" lon="1.3807">
        <ele>153</ele>
        <time>2025-04-09T11:37:05Z</time>
      </trkpt>
      <trkpt lat="43.63522" lon="1.38065">
        <ele>153</ele>
        <time>2025-04-09T11:37:06Z</time>
      </trkpt>
      <trkpt lat="43.63523" lon="1.38061">
        <ele>153</ele>
        <time>2025-04-09T11:37:07Z</time>
      </trkpt>
      <trkpt lat="43.63525" lon="1.38058">
        <ele>153</ele>
        <time>2025-04-09T11:37:08Z</time>
      </trkpt>
      <trkpt lat="43.63526" lon="1.38055">
        <ele>153</ele>
        <time>2025-04-09T11:37:09Z</time>
      </trkpt>
      <trkpt lat="43.63528" lon="1.38052">
        <ele>153</ele>
        <time>2025-04-09T11:37:10Z</time>
      </trkpt>
      <trkpt lat="43.63529" lon="1.38049">
        <ele>153</ele>
        <time>2025-04-09T11:37:11Z</time>
      </trkpt>
      <trkpt lat="43.63531" lon="1.38046">
        <ele>153</ele>
        <time>2025-04-09T11:37:12Z</time>
      </trkpt>
      <trkpt lat="43.63533" lon="1.38044">
        <ele>153</ele>
        <time>2025-04-09T11:37:13Z</time>
      </trkpt>
      <trkpt lat="43.63535" lon="1.38043">
        <ele>153</ele>
        <time>2025-04-09T11:37:14Z</time>
      </trkpt>
      <trkpt lat="43.63538" lon="1.38041">
        <ele>153</ele>
        <time>2025-04-09T11:37:15Z</time>
      </trkpt>
      <trkpt lat="43.6354" lon="1.3804">
        <ele>153</ele>
        <time>2025-04-09T11:37:16Z</time>
      </trkpt>
      <trkpt lat="43.63543" lon="1.38038">
        <ele>153</ele>
        <time>2025-04-09T11:37:17Z</time>
      </trkpt>
      <trkpt lat="43.63545" lon="1.38037">
        <ele>153</ele>
        <time>2025-04-09T11:37:18Z</time>
      </trkpt>
      <trkpt lat="43.63548" lon="1.38036">
        <ele>153</ele>
        <time>2025-04-09T11:37:19Z</time>
      </trkpt>
      <trkpt lat="43.6355" lon="1.38035">
        <ele>153</ele>
        <time>2025-04-09T11:37:20Z</time>
      </trkpt>
      <trkpt lat="43.63554" lon="1.38035">
        <ele>153</ele>
        <time>2025-04-09T11:37:21Z</time>
      </trkpt>
      <trkpt lat="43.63555" lon="1.38034">
        <ele>153</ele>
        <time>2025-04-09T11:37:22Z</time>
      </trkpt>
      <trkpt lat="43.63558" lon="1.38034">
        <ele>153</ele>
        <time>2025-04-09T11:37:23Z</time>
      </trkpt>
      <trkpt lat="43.63561" lon="1.38034">
        <ele>153</ele>
        <time>2025-04-09T11:37:24Z</time>
      </trkpt>
      <trkpt lat="43.63563" lon="1.38035">
        <ele>153</ele>
        <time>2025-04-09T11:37:25Z</time>
      </trkpt>
      <trkpt lat="43.63565" lon="1.38035">
        <ele>153</ele>
        <time>2025-04-09T11:37:26Z</time>
      </trkpt>
      <trkpt lat="43.63568" lon="1.38036">
        <ele>153</ele>
        <time>2025-04-09T11:37:27Z</time>
      </trkpt>
      <trkpt lat="43.63572" lon="1.38036">
        <ele>153</ele>
        <time>2025-04-09T11:37:28Z</time>
      </trkpt>
      <trkpt lat="43.63573" lon="1.38036">
        <ele>153</ele>
        <time>2025-04-09T11:37:29Z</time>
      </trkpt>
      <trkpt lat="43.63575" lon="1.38036">
        <ele>153</ele>
        <time>2025-04-09T11:37:30Z</time>
      </trkpt>
      <trkpt lat="43.63578" lon="1.38037">
        <ele>153</ele>
        <time>2025-04-09T11:37:31Z</time>
      </trkpt>
      <trkpt lat="43.6358" lon="1.38037">
        <ele>153</ele>
        <time>2025-04-09T11:37:32Z</time>
      </trkpt>
      <trkpt lat="43.63583" lon="1.38037">
        <ele>153</ele>
        <time>2025-04-09T11:37:33Z</time>
      </trkpt>
      <trkpt lat="43.63585" lon="1.38037">
        <ele>153</ele>
        <time>2025-04-09T11:37:34Z</time>
      </trkpt>
      <trkpt lat="43.63589" lon="1.38037">
        <ele>153</ele>
        <time>2025-04-09T11:37:35Z</time>
      </trkpt>
      <trkpt lat="43.6359" lon="1.38038">
        <ele>153</ele>
        <time>2025-04-09T11:37:36Z</time>
      </trkpt>
      <trkpt lat="43.63594" lon="1.38039">
        <ele>153</ele>
        <time>2025-04-09T11:37:37Z</time>
      </trkpt>
      <trkpt lat="43.63595" lon="1.38039">
        <ele>153</ele>
        <time>2025-04-09T11:37:38Z</time>
      </trkpt>
      <trkpt lat="43.63599" lon="1.3804">
        <ele>153</ele>
        <time>2025-04-09T11:37:39Z</time>
      </trkpt>
      <trkpt lat="43.636" lon="1.38041">
        <ele>153</ele>
        <time>2025-04-09T11:37:40Z</time>
      </trkpt>
      <trkpt lat="43.63603" lon="1.38042">
        <ele>153</ele>
        <time>2025-04-09T11:37:41Z</time>
      </trkpt>
      <trkpt lat="43.63605" lon="1.38042">
        <ele>153</ele>
        <time>2025-04-09T11:37:42Z</time>
      </trkpt>
      <trkpt lat="43.63607" lon="1.38043">
        <ele>153</ele>
        <time>2025-04-09T11:37:43Z</time>
      </trkpt>
      <trkpt lat="43.63609" lon="1.38044">
        <ele>153</ele>
        <time>2025-04-09T11:37:44Z</time>
      </trkpt>
      <trkpt lat="43.63612" lon="1.38044">
        <ele>153</ele>
        <time>2025-04-09T11:37:45Z</time>
      </trkpt>
      <trkpt lat="43.63615" lon="1.38044">
        <ele>153</ele>
        <time>2025-04-09T11:37:46Z</time>
      </trkpt>
      <trkpt lat="43.63617" lon="1.38045">
        <ele>153</ele>
        <time>2025-04-09T11:37:47Z</time>
      </trkpt>
      <trkpt lat="43.6362" lon="1.38046">
        <ele>153</ele>
        <time>2025-04-09T11:37:48Z</time>
      </trkpt>
      <trkpt lat="43.63623" lon="1.38046">
        <ele>153</ele>
        <time>2025-04-09T11:37:49Z</time>
      </trkpt>
      <trkpt lat="43.63626" lon="1.38045">
        <ele>153</ele>
        <time>2025-04-09T11:37:50Z</time>
      </trkpt>
      <trkpt lat="43.63628" lon="1.38046">
        <ele>153</ele>
        <time>2025-04-09T11:37:51Z</time>
      </trkpt>
      <trkpt lat="43.63631" lon="1.38046">
        <ele>153</ele>
        <time>2025-04-09T11:37:52Z</time>
      </trkpt>
      <trkpt lat="43.63634" lon="1.38047">
        <ele>153</ele>
        <time>2025-04-09T11:37:53Z</time>
      </trkpt>
      <trkpt lat="43.63636" lon="1.38048">
        <ele>153</ele>
        <time>2025-04-09T11:37:54Z</time>
      </trkpt>
      <trkpt lat="43.63639" lon="1.38048">
        <ele>153</ele>
        <time>2025-04-09T11:37:55Z</time>
      </trkpt>
      <trkpt lat="43.63641" lon="1.38048">
        <ele>153</ele>
        <time>2025-04-09T11:37:56Z</time>
      </trkpt>
      <trkpt lat="43.63644" lon="1.38049">
        <ele>153</ele>
        <time>2025-04-09T11:37:57Z</time>
      </trkpt>
      <trkpt lat="43.63646" lon="1.38049">
        <ele>153</ele>
        <time>2025-04-09T11:37:58Z</time>
      </trkpt>
      <trkpt lat="43.63648" lon="1.3805">
        <ele>153</ele>
        <time>2025-04-09T11:37:59Z</time>
      </trkpt>
      <trkpt lat="43.6365" lon="1.38051">
        <ele>153</ele>
        <time>2025-04-09T11:38:00Z</time>
      </trkpt>
      <trkpt lat="43.63652" lon="1.38051">
        <ele>153</ele>
        <time>2025-04-09T11:38:01Z</time>
      </trkpt>
      <trkpt lat="43.63656" lon="1.38052">
        <ele>153</ele>
        <time>2025-04-09T11:38:02Z</time>
      </trkpt>
      <trkpt lat="43.63657" lon="1.38052">
        <ele>153</ele>
        <time>2025-04-09T11:38:03Z</time>
      </trkpt>
      <trkpt lat="43.63659" lon="1.38053">
        <ele>153</ele>
        <time>2025-04-09T11:38:04Z</time>
      </trkpt>
      <trkpt lat="43.63662" lon="1.38053">
        <ele>153</ele>
        <time>2025-04-09T11:38:05Z</time>
      </trkpt>
      <trkpt lat="43.63664" lon="1.38053">
        <ele>153</ele>
        <time>2025-04-09T11:38:06Z</time>
      </trkpt>
      <trkpt lat="43.63667" lon="1.38053">
        <ele>153</ele>
        <time>2025-04-09T11:38:07Z</time>
      </trkpt>
      <trkpt lat="43.63669" lon="1.38054">
        <ele>153</ele>
        <time>2025-04-09T11:38:08Z</time>
      </trkpt>
      <trkpt lat="43.63673" lon="1.38054">
        <ele>153</ele>
        <time>2025-04-09T11:38:09Z</time>
      </trkpt>
      <trkpt lat="43.63674" lon="1.38055">
        <ele>153</ele>
        <time>2025-04-09T11:38:10Z</time>
      </trkpt>
      <trkpt lat="43.63676" lon="1.38055">
        <ele>153</ele>
        <time>2025-04-09T11:38:11Z</time>
      </trkpt>
      <trkpt lat="43.63679" lon="1.38056">
        <ele>153</ele>
        <time>2025-04-09T11:38:12Z</time>
      </trkpt>
      <trkpt lat="43.63681" lon="1.38057">
        <ele>153</ele>
        <time>2025-04-09T11:38:13Z</time>
      </trkpt>
      <trkpt lat="43.63683" lon="1.38058">
        <ele>153</ele>
        <time>2025-04-09T11:38:14Z</time>
      </trkpt>
      <trkpt lat="43.63686" lon="1.38059">
        <ele>153</ele>
        <time>2025-04-09T11:38:15Z</time>
      </trkpt>
      <trkpt lat="43.63687" lon="1.38059">
        <ele>153</ele>
        <time>2025-04-09T11:38:16Z</time>
      </trkpt>
      <trkpt lat="43.6369" lon="1.3806">
        <ele>153</ele>
        <time>2025-04-09T11:38:17Z</time>
      </trkpt>
      <trkpt lat="43.63692" lon="1.3806">
        <ele>153</ele>
        <time>2025-04-09T11:38:18Z</time>
      </trkpt>
      <trkpt lat="43.63694" lon="1.38061">
        <ele>153</ele>
        <time>2025-04-09T11:38:19Z</time>
      </trkpt>
      <trkpt lat="43.63696" lon="1.38061">
        <ele>153</ele>
        <time>2025-04-09T11:38:20Z</time>
      </trkpt>
      <trkpt lat="43.63698" lon="1.38061">
        <ele>153</ele>
        <time>2025-04-09T11:38:21Z</time>
      </trkpt>
      <trkpt lat="43.63701" lon="1.38061">
        <ele>153</ele>
        <time>2025-04-09T11:38:22Z</time>
      </trkpt>
      <trkpt lat="43.63703" lon="1.38061">
        <ele>153</ele>
        <time>2025-04-09T11:38:23Z</time>
      </trkpt>
      <trkpt lat="43.63705" lon="1.38061">
        <ele>153</ele>
        <time>2025-04-09T11:38:24Z</time>
      </trkpt>
      <trkpt lat="43.63707" lon="1.38061">
        <ele>153</ele>
        <time>2025-04-09T11:38:25Z</time>
      </trkpt>
      <trkpt lat="43.63709" lon="1.38061">
        <ele>153</ele>
        <time>2025-04-09T11:38:26Z</time>
      </trkpt>
      <trkpt lat="43.63712" lon="1.38062">
        <ele>153</ele>
        <time>2025-04-09T11:38:27Z</time>
      </trkpt>
      <trkpt lat="43.63714" lon="1.38062">
        <ele>153</ele>
        <time>2025-04-09T11:38:28Z</time>
      </trkpt>
      <trkpt lat="43.63718" lon="1.38063">
        <ele>153</ele>
        <time>2025-04-09T11:38:29Z</time>
      </trkpt>
      <trkpt lat="43.63719" lon="1.38063">
        <ele>153</ele>
        <time>2025-04-09T11:38:30Z</time>
      </trkpt>
      <trkpt lat="43.63722" lon="1.38064">
        <ele>153</ele>
        <time>2025-04-09T11:38:31Z</time>
      </trkpt>
      <trkpt lat="43.63724" lon="1.38065">
        <ele>153</ele>
        <time>2025-04-09T11:38:32Z</time>
      </trkpt>
      <trkpt lat="43.63727" lon="1.38066">
        <ele>153</ele>
        <time>2025-04-09T11:38:33Z</time>
      </trkpt>
      <trkpt lat="43.6373" lon="1.38067">
        <ele>153</ele>
        <time>2025-04-09T11:38:34Z</time>
      </trkpt>
      <trkpt lat="43.63731" lon="1.38067">
        <ele>153</ele>
        <time>2025-04-09T11:38:35Z</time>
      </trkpt>
      <trkpt lat="43.63733" lon="1.38068">
        <ele>153</ele>
        <time>2025-04-09T11:38:36Z</time>
      </trkpt>
      <trkpt lat="43.63736" lon="1.38069">
        <ele>153</ele>
        <time>2025-04-09T11:38:37Z</time>
      </trkpt>
      <trkpt lat="43.63739" lon="1.3807">
        <ele>153</ele>
        <time>2025-04-09T11:38:38Z</time>
      </trkpt>
      <trkpt lat="43.6374" lon="1.3807">
        <ele>153</ele>
        <time>2025-04-09T11:38:39Z</time>
      </trkpt>
      <trkpt lat="43.63742" lon="1.38071">
        <ele>153</ele>
        <time>2025-04-09T11:38:40Z</time>
      </trkpt>
      <trkpt lat="43.63746" lon="1.38072">
        <ele>153</ele>
        <time>2025-04-09T11:38:41Z</time>
      </trkpt>
      <trkpt lat="43.63747" lon="1.38072">
        <ele>153</ele>
        <time>2025-04-09T11:38:42Z</time>
      </trkpt>
      <trkpt lat="43.63751" lon="1.38073">
        <ele>153</ele>
        <time>2025-04-09T11:38:43Z</time>
      </trkpt>
      <trkpt lat="43.63752" lon="1.38073">
        <ele>152</ele>
        <time>2025-04-09T11:38:44Z</time>
      </trkpt>
      <trkpt lat="43.63754" lon="1.38074">
        <ele>153</ele>
        <time>2025-04-09T11:38:45Z</time>
      </trkpt>
      <trkpt lat="43.63756" lon="1.38075">
        <ele>153</ele>
        <time>2025-04-09T11:38:46Z</time>
      </trkpt>
      <trkpt lat="43.63759" lon="1.38076">
        <ele>153</ele>
        <time>2025-04-09T11:38:47Z</time>
      </trkpt>
      <trkpt lat="43.63761" lon="1.38076">
        <ele>153</ele>
        <time>2025-04-09T11:38:48Z</time>
      </trkpt>
      <trkpt lat="43.63764" lon="1.38077">
        <ele>153</ele>
        <time>2025-04-09T11:38:49Z</time>
      </trkpt>
      <trkpt lat="43.63767" lon="1.38077">
        <ele>153</ele>
        <time>2025-04-09T11:38:50Z</time>
      </trkpt>
      <trkpt lat="43.63769" lon="1.38077">
        <ele>152</ele>
        <time>2025-04-09T11:38:51Z</time>
      </trkpt>
      <trkpt lat="43.63771" lon="1.38077">
        <ele>153</ele>
        <time>2025-04-09T11:38:52Z</time>
      </trkpt>
      <trkpt lat="43.63775" lon="1.38077">
        <ele>153</ele>
        <time>2025-04-09T11:38:53Z</time>
      </trkpt>
      <trkpt lat="43.63776" lon="1.38078">
        <ele>153</ele>
        <time>2025-04-09T11:38:54Z</time>
      </trkpt>
      <trkpt lat="43.63778" lon="1.38078">
        <ele>153</ele>
        <time>2025-04-09T11:38:55Z</time>
      </trkpt>
      <trkpt lat="43.6378" lon="1.38078">
        <ele>153</ele>
        <time>2025-04-09T11:38:56Z</time>
      </trkpt>
      <trkpt lat="43.63782" lon="1.38079">
        <ele>153</ele>
        <time>2025-04-09T11:38:57Z</time>
      </trkpt>
      <trkpt lat="43.63784" lon="1.38079">
        <ele>153</ele>
        <time>2025-04-09T11:38:58Z</time>
      </trkpt>
      <trkpt lat="43.63786" lon="1.3808">
        <ele>153</ele>
        <time>2025-04-09T11:38:59Z</time>
      </trkpt>
      <trkpt lat="43.63788" lon="1.3808">
        <ele>152</ele>
        <time>2025-04-09T11:39:00Z</time>
      </trkpt>
      <trkpt lat="43.63788" lon="1.3808">
        <ele>152</ele>
        <time>2025-04-09T11:39:01Z</time>
      </trkpt>
      <trkpt lat="43.63791" lon="1.38078">
        <ele>152</ele>
        <time>2025-04-09T11:39:02Z</time>
      </trkpt>
      <trkpt lat="43.63794" lon="1.38075">
        <ele>152</ele>
        <time>2025-04-09T11:39:03Z</time>
      </trkpt>
      <trkpt lat="43.63795" lon="1.38074">
        <ele>153</ele>
        <time>2025-04-09T11:39:04Z</time>
      </trkpt>
      <trkpt lat="43.63798" lon="1.38071">
        <ele>153</ele>
        <time>2025-04-09T11:39:05Z</time>
      </trkpt>
      <trkpt lat="43.63799" lon="1.3807">
        <ele>153</ele>
        <time>2025-04-09T11:39:06Z</time>
      </trkpt>
      <trkpt lat="43.63801" lon="1.38068">
        <ele>153</ele>
        <time>2025-04-09T11:39:07Z</time>
      </trkpt>
      <trkpt lat="43.63803" lon="1.38067">
        <ele>153</ele>
        <time>2025-04-09T11:39:08Z</time>
      </trkpt>
      <trkpt lat="43.63804" lon="1.38065">
        <ele>153</ele>
        <time>2025-04-09T11:39:09Z</time>
      </trkpt>
      <trkpt lat="43.63805" lon="1.38063">
        <ele>153</ele>
        <time>2025-04-09T11:39:10Z</time>
      </trkpt>
      <trkpt lat="43.63807" lon="1.38061">
        <ele>153</ele>
        <time>2025-04-09T11:39:11Z</time>
      </trkpt>
      <trkpt lat="43.63808" lon="1.38059">
        <ele>153</ele>
        <time>2025-04-09T11:39:12Z</time>
      </trkpt>
      <trkpt lat="43.63809" lon="1.38057">
        <ele>153</ele>
        <time>2025-04-09T11:39:13Z</time>
      </trkpt>
      <trkpt lat="43.63813" lon="1.38051">
        <ele>152</ele>
        <time>2025-04-09T11:39:15Z</time>
      </trkpt>
      <trkpt lat="43.63816" lon="1.38046">
        <ele>153</ele>
        <time>2025-04-09T11:39:16Z</time>
      </trkpt>
      <trkpt lat="43.63817" lon="1.38044">
        <ele>153</ele>
        <time>2025-04-09T11:39:17Z</time>
      </trkpt>
      <trkpt lat="43.63818" lon="1.38042">
        <ele>153</ele>
        <time>2025-04-09T11:39:18Z</time>
      </trkpt>
      <trkpt lat="43.63819" lon="1.3804">
        <ele>152</ele>
        <time>2025-04-09T11:39:19Z</time>
      </trkpt>
      <trkpt lat="43.6382" lon="1.38038">
        <ele>152</ele>
        <time>2025-04-09T11:39:20Z</time>
      </trkpt>
      <trkpt lat="43.63824" lon="1.38029">
        <ele>152</ele>
        <time>2025-04-09T11:39:21Z</time>
      </trkpt>
      <trkpt lat="43.63824" lon="1.38027">
        <ele>152</ele>
        <time>2025-04-09T11:39:22Z</time>
      </trkpt>
      <trkpt lat="43.63825" lon="1.38025">
        <ele>152</ele>
        <time>2025-04-09T11:39:23Z</time>
      </trkpt>
      <trkpt lat="43.63826" lon="1.38022">
        <ele>152</ele>
        <time>2025-04-09T11:39:24Z</time>
      </trkpt>
      <trkpt lat="43.63827" lon="1.38019">
        <ele>152</ele>
        <time>2025-04-09T11:39:25Z</time>
      </trkpt>
      <trkpt lat="43.63828" lon="1.38017">
        <ele>152</ele>
        <time>2025-04-09T11:39:26Z</time>
      </trkpt>
      <trkpt lat="43.63829" lon="1.38014">
        <ele>152</ele>
        <time>2025-04-09T11:39:27Z</time>
      </trkpt>
      <trkpt lat="43.63831" lon="1.38011">
        <ele>152</ele>
        <time>2025-04-09T11:39:28Z</time>
      </trkpt>
      <trkpt lat="43.63832" lon="1.38008">
        <ele>152</ele>
        <time>2025-04-09T11:39:29Z</time>
      </trkpt>
      <trkpt lat="43.63833" lon="1.38006">
        <ele>153</ele>
        <time>2025-04-09T11:39:30Z</time>
      </trkpt>
      <trkpt lat="43.63835" lon="1.38001">
        <ele>153</ele>
        <time>2025-04-09T11:39:31Z</time>
      </trkpt>
      <trkpt lat="43.63834" lon="1.37999">
        <ele>153</ele>
        <time>2025-04-09T11:39:32Z</time>
      </trkpt>
      <trkpt lat="43.63834" lon="1.37995">
        <ele>153</ele>
        <time>2025-04-09T11:39:33Z</time>
      </trkpt>
      <trkpt lat="43.63833" lon="1.37993">
        <ele>152</ele>
        <time>2025-04-09T11:39:34Z</time>
      </trkpt>
      <trkpt lat="43.63835" lon="1.3799">
        <ele>152</ele>
        <time>2025-04-09T11:39:35Z</time>
      </trkpt>
      <trkpt lat="43.63835" lon="1.3799">
        <ele>153</ele>
        <time>2025-04-09T11:39:36Z</time>
      </trkpt>
      <trkpt lat="43.63838" lon="1.37988">
        <ele>153</ele>
        <time>2025-04-09T11:39:37Z</time>
      </trkpt>
      <trkpt lat="43.6384" lon="1.37987">
        <ele>153</ele>
        <time>2025-04-09T11:39:38Z</time>
      </trkpt>
      <trkpt lat="43.63841" lon="1.37984">
        <ele>153</ele>
        <time>2025-04-09T11:39:39Z</time>
      </trkpt>
      <trkpt lat="43.63844" lon="1.3798">
        <ele>153</ele>
        <time>2025-04-09T11:39:40Z</time>
      </trkpt>
      <trkpt lat="43.63845" lon="1.37978">
        <ele>152</ele>
        <time>2025-04-09T11:39:41Z</time>
      </trkpt>
      <trkpt lat="43.63847" lon="1.37973">
        <ele>152</ele>
        <time>2025-04-09T11:39:42Z</time>
      </trkpt>
      <trkpt lat="43.63847" lon="1.37973">
        <ele>152</ele>
        <time>2025-04-09T11:39:43Z</time>
      </trkpt>
      <trkpt lat="43.63849" lon="1.3797">
        <ele>152</ele>
        <time>2025-04-09T11:39:44Z</time>
      </trkpt>
      <trkpt lat="43.6385" lon="1.37967">
        <ele>152</ele>
        <time>2025-04-09T11:39:45Z</time>
      </trkpt>
      <trkpt lat="43.63852" lon="1.37965">
        <ele>152</ele>
        <time>2025-04-09T11:39:46Z</time>
      </trkpt>
      <trkpt lat="43.63855" lon="1.3796">
        <ele>152</ele>
        <time>2025-04-09T11:39:47Z</time>
      </trkpt>
      <trkpt lat="43.63856" lon="1.37958">
        <ele>152</ele>
        <time>2025-04-09T11:39:48Z</time>
      </trkpt>
      <trkpt lat="43.63857" lon="1.37955">
        <ele>152</ele>
        <time>2025-04-09T11:39:49Z</time>
      </trkpt>
      <trkpt lat="43.6386" lon="1.37951">
        <ele>152</ele>
        <time>2025-04-09T11:39:50Z</time>
      </trkpt>
      <trkpt lat="43.63861" lon="1.3795">
        <ele>152</ele>
        <time>2025-04-09T11:39:51Z</time>
      </trkpt>
      <trkpt lat="43.63862" lon="1.37947">
        <ele>152</ele>
        <time>2025-04-09T11:39:52Z</time>
      </trkpt>
      <trkpt lat="43.63864" lon="1.37944">
        <ele>152</ele>
        <time>2025-04-09T11:39:53Z</time>
      </trkpt>
      <trkpt lat="43.63865" lon="1.37941">
        <ele>152</ele>
        <time>2025-04-09T11:39:54Z</time>
      </trkpt>
      <trkpt lat="43.63866" lon="1.37939">
        <ele>152</ele>
        <time>2025-04-09T11:39:55Z</time>
      </trkpt>
      <trkpt lat="43.63868" lon="1.37935">
        <ele>152</ele>
        <time>2025-04-09T11:39:56Z</time>
      </trkpt>
      <trkpt lat="43.63869" lon="1.37934">
        <ele>152</ele>
        <time>2025-04-09T11:39:57Z</time>
      </trkpt>
      <trkpt lat="43.6387" lon="1.37931">
        <ele>152</ele>
        <time>2025-04-09T11:39:58Z</time>
      </trkpt>
      <trkpt lat="43.63872" lon="1.37929">
        <ele>152</ele>
        <time>2025-04-09T11:39:59Z</time>
      </trkpt>
      <trkpt lat="43.63873" lon="1.37926">
        <ele>152</ele>
        <time>2025-04-09T11:40:00Z</time>
      </trkpt>
      <trkpt lat="43.63875" lon="1.37923">
        <ele>152</ele>
        <time>2025-04-09T11:40:01Z</time>
      </trkpt>
      <trkpt lat="43.63877" lon="1.3792">
        <ele>152</ele>
        <time>2025-04-09T11:40:02Z</time>
      </trkpt>
      <trkpt lat="43.63879" lon="1.37917">
        <ele>152</ele>
        <time>2025-04-09T11:40:03Z</time>
      </trkpt>
      <trkpt lat="43.6388" lon="1.37912">
        <ele>152</ele>
        <time>2025-04-09T11:40:04Z</time>
      </trkpt>
      <trkpt lat="43.63881" lon="1.37911">
        <ele>152</ele>
        <time>2025-04-09T11:40:05Z</time>
      </trkpt>
      <trkpt lat="43.63883" lon="1.37906">
        <ele>152</ele>
        <time>2025-04-09T11:40:06Z</time>
      </trkpt>
      <trkpt lat="43.63884" lon="1.37904">
        <ele>152</ele>
        <time>2025-04-09T11:40:07Z</time>
      </trkpt>
      <trkpt lat="43.63886" lon="1.37901">
        <ele>153</ele>
        <time>2025-04-09T11:40:08Z</time>
      </trkpt>
      <trkpt lat="43.63888" lon="1.37896">
        <ele>153</ele>
        <time>2025-04-09T11:40:09Z</time>
      </trkpt>
      <trkpt lat="43.63889" lon="1.37895">
        <ele>152</ele>
        <time>2025-04-09T11:40:10Z</time>
      </trkpt>
      <trkpt lat="43.63891" lon="1.37892">
        <ele>152</ele>
        <time>2025-04-09T11:40:11Z</time>
      </trkpt>
      <trkpt lat="43.63892" lon="1.3789">
        <ele>152</ele>
        <time>2025-04-09T11:40:12Z</time>
      </trkpt>
      <trkpt lat="43.63894" lon="1.37887">
        <ele>153</ele>
        <time>2025-04-09T11:40:13Z</time>
      </trkpt>
      <trkpt lat="43.63896" lon="1.37885">
        <ele>153</ele>
        <time>2025-04-09T11:40:14Z</time>
      </trkpt>
      <trkpt lat="43.63898" lon="1.3788">
        <ele>153</ele>
        <time>2025-04-09T11:40:15Z</time>
      </trkpt>
      <trkpt lat="43.63899" lon="1.37879">
        <ele>153</ele>
        <time>2025-04-09T11:40:16Z</time>
      </trkpt>
      <trkpt lat="43.639" lon="1.37875">
        <ele>153</ele>
        <time>2025-04-09T11:40:17Z</time>
      </trkpt>
      <trkpt lat="43.63902" lon="1.37872">
        <ele>153</ele>
        <time>2025-04-09T11:40:18Z</time>
      </trkpt>
      <trkpt lat="43.63902" lon="1.37868">
        <ele>153</ele>
        <time>2025-04-09T11:40:19Z</time>
      </trkpt>
      <trkpt lat="43.63903" lon="1.37865">
        <ele>152</ele>
        <time>2025-04-09T11:40:20Z</time>
      </trkpt>
      <trkpt lat="43.63904" lon="1.37861">
        <ele>152</ele>
        <time>2025-04-09T11:40:21Z</time>
      </trkpt>
      <trkpt lat="43.63904" lon="1.37858">
        <ele>152</ele>
        <time>2025-04-09T11:40:22Z</time>
      </trkpt>
      <trkpt lat="43.63904" lon="1.37856">
        <ele>152</ele>
        <time>2025-04-09T11:40:23Z</time>
      </trkpt>
      <trkpt lat="43.63903" lon="1.37854">
        <ele>152</ele>
        <time>2025-04-09T11:40:24Z</time>
      </trkpt>
      <trkpt lat="43.63903" lon="1.37851">
        <ele>153</ele>
        <time>2025-04-09T11:40:25Z</time>
      </trkpt>
      <trkpt lat="43.63903" lon="1.37849">
        <ele>153</ele>
        <time>2025-04-09T11:40:26Z</time>
      </trkpt>
      <trkpt lat="43.63902" lon="1.37847">
        <ele>153</ele>
        <time>2025-04-09T11:40:27Z</time>
      </trkpt>
      <trkpt lat="43.63902" lon="1.37845">
        <ele>153</ele>
        <time>2025-04-09T11:40:28Z</time>
      </trkpt>
      <trkpt lat="43.639" lon="1.37841">
        <ele>153</ele>
        <time>2025-04-09T11:40:29Z</time>
      </trkpt>
      <trkpt lat="43.63899" lon="1.37837">
        <ele>153</ele>
        <time>2025-04-09T11:40:30Z</time>
      </trkpt>
      <trkpt lat="43.63898" lon="1.37833">
        <ele>153</ele>
        <time>2025-04-09T11:40:31Z</time>
      </trkpt>
      <trkpt lat="43.63897" lon="1.3783">
        <ele>153</ele>
        <time>2025-04-09T11:40:32Z</time>
      </trkpt>
      <trkpt lat="43.63896" lon="1.37826">
        <ele>153</ele>
        <time>2025-04-09T11:40:33Z</time>
      </trkpt>
      <trkpt lat="43.63895" lon="1.37823">
        <ele>153</ele>
        <time>2025-04-09T11:40:34Z</time>
      </trkpt>
      <trkpt lat="43.63895" lon="1.3782">
        <ele>153</ele>
        <time>2025-04-09T11:40:35Z</time>
      </trkpt>
      <trkpt lat="43.63893" lon="1.37816">
        <ele>153</ele>
        <time>2025-04-09T11:40:36Z</time>
      </trkpt>
      <trkpt lat="43.63893" lon="1.37814">
        <ele>152</ele>
        <time>2025-04-09T11:40:37Z</time>
      </trkpt>
      <trkpt lat="43.63892" lon="1.37811">
        <ele>152</ele>
        <time>2025-04-09T11:40:38Z</time>
      </trkpt>
      <trkpt lat="43.63891" lon="1.37806">
        <ele>152</ele>
        <time>2025-04-09T11:40:39Z</time>
      </trkpt>
      <trkpt lat="43.6389" lon="1.37804">
        <ele>152</ele>
        <time>2025-04-09T11:40:40Z</time>
      </trkpt>
      <trkpt lat="43.63889" lon="1.37801">
        <ele>152</ele>
        <time>2025-04-09T11:40:41Z</time>
      </trkpt>
      <trkpt lat="43.63887" lon="1.37798">
        <ele>152</ele>
        <time>2025-04-09T11:40:42Z</time>
      </trkpt>
      <trkpt lat="43.63887" lon="1.37795">
        <ele>152</ele>
        <time>2025-04-09T11:40:43Z</time>
      </trkpt>
      <trkpt lat="43.63889" lon="1.3779">
        <ele>152</ele>
        <time>2025-04-09T11:40:44Z</time>
      </trkpt>
      <trkpt lat="43.63889" lon="1.37788">
        <ele>152</ele>
        <time>2025-04-09T11:40:45Z</time>
      </trkpt>
      <trkpt lat="43.63891" lon="1.37786">
        <ele>152</ele>
        <time>2025-04-09T11:40:46Z</time>
      </trkpt>
      <trkpt lat="43.63894" lon="1.37782">
        <ele>152</ele>
        <time>2025-04-09T11:40:47Z</time>
      </trkpt>
      <trkpt lat="43.63894" lon="1.37781">
        <ele>152</ele>
        <time>2025-04-09T11:40:48Z</time>
      </trkpt>
      <trkpt lat="43.63896" lon="1.3778">
        <ele>152</ele>
        <time>2025-04-09T11:40:49Z</time>
      </trkpt>
      <trkpt lat="43.63898" lon="1.37778">
        <ele>152</ele>
        <time>2025-04-09T11:40:50Z</time>
      </trkpt>
      <trkpt lat="43.639" lon="1.37777">
        <ele>152</ele>
        <time>2025-04-09T11:40:51Z</time>
      </trkpt>
      <trkpt lat="43.63903" lon="1.37774">
        <ele>152</ele>
        <time>2025-04-09T11:40:52Z</time>
      </trkpt>
      <trkpt lat="43.63905" lon="1.37772">
        <ele>152</ele>
        <time>2025-04-09T11:40:53Z</time>
      </trkpt>
      <trkpt lat="43.63908" lon="1.3777">
        <ele>153</ele>
        <time>2025-04-09T11:40:54Z</time>
      </trkpt>
      <trkpt lat="43.63911" lon="1.37768">
        <ele>153</ele>
        <time>2025-04-09T11:40:55Z</time>
      </trkpt>
      <trkpt lat="43.63914" lon="1.37766">
        <ele>153</ele>
        <time>2025-04-09T11:40:56Z</time>
      </trkpt>
      <trkpt lat="43.63917" lon="1.37765">
        <ele>153</ele>
        <time>2025-04-09T11:40:57Z</time>
      </trkpt>
      <trkpt lat="43.63919" lon="1.37766">
        <ele>153</ele>
        <time>2025-04-09T11:40:58Z</time>
      </trkpt>
      <trkpt lat="43.6392" lon="1.37767">
        <ele>153</ele>
        <time>2025-04-09T11:40:59Z</time>
      </trkpt>
      <trkpt lat="43.63922" lon="1.37769">
        <ele>153</ele>
        <time>2025-04-09T11:41:00Z</time>
      </trkpt>
      <trkpt lat="43.63923" lon="1.37771">
        <ele>153</ele>
        <time>2025-04-09T11:41:01Z</time>
      </trkpt>
      <trkpt lat="43.63924" lon="1.37772">
        <ele>153</ele>
        <time>2025-04-09T11:41:02Z</time>
      </trkpt>
      <trkpt lat="43.63926" lon="1.37774">
        <ele>153</ele>
        <time>2025-04-09T11:41:03Z</time>
      </trkpt>
      <trkpt lat="43.63927" lon="1.37775">
        <ele>153</ele>
        <time>2025-04-09T11:41:04Z</time>
      </trkpt>
      <trkpt lat="43.63928" lon="1.37777">
        <ele>153</ele>
        <time>2025-04-09T11:41:05Z</time>
      </trkpt>
      <trkpt lat="43.6393" lon="1.37778">
        <ele>153</ele>
        <time>2025-04-09T11:41:06Z</time>
      </trkpt>
      <trkpt lat="43.63933" lon="1.3778">
        <ele>153</ele>
        <time>2025-04-09T11:41:07Z</time>
      </trkpt>
      <trkpt lat="43.63936" lon="1.37781">
        <ele>153</ele>
        <time>2025-04-09T11:41:08Z</time>
      </trkpt>
      <trkpt lat="43.63939" lon="1.37782">
        <ele>153</ele>
        <time>2025-04-09T11:41:09Z</time>
      </trkpt>
      <trkpt lat="43.6394" lon="1.37782">
        <ele>153</ele>
        <time>2025-04-09T11:41:10Z</time>
      </trkpt>
      <trkpt lat="43.63942" lon="1.37781">
        <ele>153</ele>
        <time>2025-04-09T11:41:11Z</time>
      </trkpt>
      <trkpt lat="43.63943" lon="1.37781">
        <ele>153</ele>
        <time>2025-04-09T11:41:12Z</time>
      </trkpt>
      <trkpt lat="43.63945" lon="1.3778">
        <ele>153</ele>
        <time>2025-04-09T11:41:13Z</time>
      </trkpt>
      <trkpt lat="43.63952" lon="1.37778">
        <ele>153</ele>
        <time>2025-04-09T11:41:14Z</time>
      </trkpt>
      <trkpt lat="43.63953" lon="1.37778">
        <ele>153</ele>
        <time>2025-04-09T11:41:15Z</time>
      </trkpt>
      <trkpt lat="43.63955" lon="1.37778">
        <ele>153</ele>
        <time>2025-04-09T11:41:16Z</time>
      </trkpt>
      <trkpt lat="43.63956" lon="1.37777">
        <ele>153</ele>
        <time>2025-04-09T11:41:17Z</time>
      </trkpt>
      <trkpt lat="43.63962" lon="1.37774">
        <ele>153</ele>
        <time>2025-04-09T11:41:18Z</time>
      </trkpt>
      <trkpt lat="43.63963" lon="1.37773">
        <ele>153</ele>
        <time>2025-04-09T11:41:19Z</time>
      </trkpt>
      <trkpt lat="43.63964" lon="1.37771">
        <ele>153</ele>
        <time>2025-04-09T11:41:20Z</time>
      </trkpt>
      <trkpt lat="43.63965" lon="1.37769">
        <ele>153</ele>
        <time>2025-04-09T11:41:21Z</time>
      </trkpt>
      <trkpt lat="43.63966" lon="1.37768">
        <ele>153</ele>
        <time>2025-04-09T11:41:22Z</time>
      </trkpt>
      <trkpt lat="43.63969" lon="1.37764">
        <ele>153</ele>
        <time>2025-04-09T11:41:23Z</time>
      </trkpt>
      <trkpt lat="43.63971" lon="1.3776">
        <ele>153</ele>
        <time>2025-04-09T11:41:24Z</time>
      </trkpt>
      <trkpt lat="43.63972" lon="1.37755">
        <ele>153</ele>
        <time>2025-04-09T11:41:25Z</time>
      </trkpt>
      <trkpt lat="43.63972" lon="1.37754">
        <ele>152</ele>
        <time>2025-04-09T11:41:26Z</time>
      </trkpt>
      <trkpt lat="43.63973" lon="1.37751">
        <ele>152</ele>
        <time>2025-04-09T11:41:27Z</time>
      </trkpt>
      <trkpt lat="43.63974" lon="1.37748">
        <ele>152</ele>
        <time>2025-04-09T11:41:28Z</time>
      </trkpt>
      <trkpt lat="43.63974" lon="1.37745">
        <ele>152</ele>
        <time>2025-04-09T11:41:29Z</time>
      </trkpt>
      <trkpt lat="43.63975" lon="1.3774">
        <ele>152</ele>
        <time>2025-04-09T11:41:30Z</time>
      </trkpt>
      <trkpt lat="43.63975" lon="1.37739">
        <ele>152</ele>
        <time>2025-04-09T11:41:31Z</time>
      </trkpt>
      <trkpt lat="43.63976" lon="1.37736">
        <ele>152</ele>
        <time>2025-04-09T11:41:32Z</time>
      </trkpt>
      <trkpt lat="43.63977" lon="1.37733">
        <ele>152</ele>
        <time>2025-04-09T11:41:33Z</time>
      </trkpt>
      <trkpt lat="43.63977" lon="1.3773">
        <ele>153</ele>
        <time>2025-04-09T11:41:34Z</time>
      </trkpt>
      <trkpt lat="43.63978" lon="1.37728">
        <ele>153</ele>
        <time>2025-04-09T11:41:35Z</time>
      </trkpt>
      <trkpt lat="43.63979" lon="1.37725">
        <ele>153</ele>
        <time>2025-04-09T11:41:36Z</time>
      </trkpt>
      <trkpt lat="43.63981" lon="1.3772">
        <ele>153</ele>
        <time>2025-04-09T11:41:37Z</time>
      </trkpt>
      <trkpt lat="43.63982" lon="1.37719">
        <ele>153</ele>
        <time>2025-04-09T11:41:38Z</time>
      </trkpt>
      <trkpt lat="43.63983" lon="1.37716">
        <ele>153</ele>
        <time>2025-04-09T11:41:39Z</time>
      </trkpt>
      <trkpt lat="43.63985" lon="1.37713">
        <ele>153</ele>
        <time>2025-04-09T11:41:40Z</time>
      </trkpt>
      <trkpt lat="43.63987" lon="1.3771">
        <ele>153</ele>
        <time>2025-04-09T11:41:41Z</time>
      </trkpt>
      <trkpt lat="43.63989" lon="1.37708">
        <ele>153</ele>
        <time>2025-04-09T11:41:42Z</time>
      </trkpt>
      <trkpt lat="43.63991" lon="1.37707">
        <ele>153</ele>
        <time>2025-04-09T11:41:43Z</time>
      </trkpt>
      <trkpt lat="43.63993" lon="1.37705">
        <ele>153</ele>
        <time>2025-04-09T11:41:44Z</time>
      </trkpt>
      <trkpt lat="43.63993" lon="1.37705">
        <ele>153</ele>
        <time>2025-04-09T11:41:45Z</time>
      </trkpt>
      <trkpt lat="43.63999" lon="1.37699">
        <ele>153</ele>
        <time>2025-04-09T11:41:46Z</time>
      </trkpt>
      <trkpt lat="43.64" lon="1.37697">
        <ele>153</ele>
        <time>2025-04-09T11:41:47Z</time>
      </trkpt>
      <trkpt lat="43.64001" lon="1.37695">
        <ele>153</ele>
        <time>2025-04-09T11:41:48Z</time>
      </trkpt>
      <trkpt lat="43.64002" lon="1.37692">
        <ele>152</ele>
        <time>2025-04-09T11:41:49Z</time>
      </trkpt>
      <trkpt lat="43.64004" lon="1.37689">
        <ele>152</ele>
        <time>2025-04-09T11:41:50Z</time>
      </trkpt>
      <trkpt lat="43.64006" lon="1.37684">
        <ele>152</ele>
        <time>2025-04-09T11:41:51Z</time>
      </trkpt>
      <trkpt lat="43.64007" lon="1.37683">
        <ele>153</ele>
        <time>2025-04-09T11:41:52Z</time>
      </trkpt>
      <trkpt lat="43.64008" lon="1.3768">
        <ele>153</ele>
        <time>2025-04-09T11:41:53Z</time>
      </trkpt>
      <trkpt lat="43.6401" lon="1.37677">
        <ele>153</ele>
        <time>2025-04-09T11:41:54Z</time>
      </trkpt>
      <trkpt lat="43.6401" lon="1.37674">
        <ele>153</ele>
        <time>2025-04-09T11:41:55Z</time>
      </trkpt>
      <trkpt lat="43.64011" lon="1.37672">
        <ele>153</ele>
        <time>2025-04-09T11:41:56Z</time>
      </trkpt>
      <trkpt lat="43.64012" lon="1.3767">
        <ele>153</ele>
        <time>2025-04-09T11:41:57Z</time>
      </trkpt>
      <trkpt lat="43.64012" lon="1.37667">
        <ele>153</ele>
        <time>2025-04-09T11:41:58Z</time>
      </trkpt>
      <trkpt lat="43.64013" lon="1.37665">
        <ele>153</ele>
        <time>2025-04-09T11:41:59Z</time>
      </trkpt>
      <trkpt lat="43.64014" lon="1.37659">
        <ele>153</ele>
        <time>2025-04-09T11:42:00Z</time>
      </trkpt>
      <trkpt lat="43.64015" lon="1.37656">
        <ele>153</ele>
        <time>2025-04-09T11:42:01Z</time>
      </trkpt>
      <trkpt lat="43.64017" lon="1.37654">
        <ele>153</ele>
        <time>2025-04-09T11:42:02Z</time>
      </trkpt>
      <trkpt lat="43.64019" lon="1.37649">
        <ele>153</ele>
        <time>2025-04-09T11:42:03Z</time>
      </trkpt>
      <trkpt lat="43.6402" lon="1.37647">
        <ele>153</ele>
        <time>2025-04-09T11:42:04Z</time>
      </trkpt>
      <trkpt lat="43.64021" lon="1.37645">
        <ele>153</ele>
        <time>2025-04-09T11:42:05Z</time>
      </trkpt>
      <trkpt lat="43.64024" lon="1.37641">
        <ele>153</ele>
        <time>2025-04-09T11:42:06Z</time>
      </trkpt>
      <trkpt lat="43.64024" lon="1.3764">
        <ele>153</ele>
        <time>2025-04-09T11:42:07Z</time>
      </trkpt>
      <trkpt lat="43.64026" lon="1.37636">
        <ele>153</ele>
        <time>2025-04-09T11:42:08Z</time>
      </trkpt>
      <trkpt lat="43.64027" lon="1.37634">
        <ele>152</ele>
        <time>2025-04-09T11:42:09Z</time>
      </trkpt>
      <trkpt lat="43.64028" lon="1.37631">
        <ele>153</ele>
        <time>2025-04-09T11:42:10Z</time>
      </trkpt>
      <trkpt lat="43.6403" lon="1.37628">
        <ele>153</ele>
        <time>2025-04-09T11:42:11Z</time>
      </trkpt>
      <trkpt lat="43.64031" lon="1.37626">
        <ele>153</ele>
        <time>2025-04-09T11:42:12Z</time>
      </trkpt>
      <trkpt lat="43.64033" lon="1.37623">
        <ele>153</ele>
        <time>2025-04-09T11:42:13Z</time>
      </trkpt>
      <trkpt lat="43.64035" lon="1.3762">
        <ele>153</ele>
        <time>2025-04-09T11:42:14Z</time>
      </trkpt>
      <trkpt lat="43.64037" lon="1.37616">
        <ele>153</ele>
        <time>2025-04-09T11:42:15Z</time>
      </trkpt>
      <trkpt lat="43.64038" lon="1.37614">
        <ele>153</ele>
        <time>2025-04-09T11:42:16Z</time>
      </trkpt>
      <trkpt lat="43.64039" lon="1.37611">
        <ele>153</ele>
        <time>2025-04-09T11:42:17Z</time>
      </trkpt>
      <trkpt lat="43.6404" lon="1.37608">
        <ele>153</ele>
        <time>2025-04-09T11:42:18Z</time>
      </trkpt>
      <trkpt lat="43.64042" lon="1.37605">
        <ele>153</ele>
        <time>2025-04-09T11:42:19Z</time>
      </trkpt>
      <trkpt lat="43.64043" lon="1.37603">
        <ele>153</ele>
        <time>2025-04-09T11:42:20Z</time>
      </trkpt>
      <trkpt lat="43.64045" lon="1.376">
        <ele>153</ele>
        <time>2025-04-09T11:42:21Z</time>
      </trkpt>
      <trkpt lat="43.64047" lon="1.37595">
        <ele>153</ele>
        <time>2025-04-09T11:42:22Z</time>
      </trkpt>
      <trkpt lat="43.64048" lon="1.37593">
        <ele>153</ele>
        <time>2025-04-09T11:42:23Z</time>
      </trkpt>
      <trkpt lat="43.64049" lon="1.3759">
        <ele>153</ele>
        <time>2025-04-09T11:42:24Z</time>
      </trkpt>
      <trkpt lat="43.64052" lon="1.37586">
        <ele>153</ele>
        <time>2025-04-09T11:42:25Z</time>
      </trkpt>
      <trkpt lat="43.64053" lon="1.37585">
        <ele>153</ele>
        <time>2025-04-09T11:42:26Z</time>
      </trkpt>
      <trkpt lat="43.64057" lon="1.37582">
        <ele>153</ele>
        <time>2025-04-09T11:42:27Z</time>
      </trkpt>
      <trkpt lat="43.64058" lon="1.37581">
        <ele>152</ele>
        <time>2025-04-09T11:42:28Z</time>
      </trkpt>
      <trkpt lat="43.64061" lon="1.37578">
        <ele>152</ele>
        <time>2025-04-09T11:42:29Z</time>
      </trkpt>
      <trkpt lat="43.64065" lon="1.37577">
        <ele>153</ele>
        <time>2025-04-09T11:42:30Z</time>
      </trkpt>
      <trkpt lat="43.64068" lon="1.37576">
        <ele>153</ele>
        <time>2025-04-09T11:42:31Z</time>
      </trkpt>
      <trkpt lat="43.64072" lon="1.37575">
        <ele>153</ele>
        <time>2025-04-09T11:42:32Z</time>
      </trkpt>
      <trkpt lat="43.64075" lon="1.37574">
        <ele>152</ele>
        <time>2025-04-09T11:42:33Z</time>
      </trkpt>
      <trkpt lat="43.64081" lon="1.37573">
        <ele>152</ele>
        <time>2025-04-09T11:42:34Z</time>
      </trkpt>
      <trkpt lat="43.64082" lon="1.37573">
        <ele>152</ele>
        <time>2025-04-09T11:42:35Z</time>
      </trkpt>
      <trkpt lat="43.64085" lon="1.37574">
        <ele>152</ele>
        <time>2025-04-09T11:42:36Z</time>
      </trkpt>
      <trkpt lat="43.64088" lon="1.37575">
        <ele>152</ele>
        <time>2025-04-09T11:42:37Z</time>
      </trkpt>
      <trkpt lat="43.6409" lon="1.37576">
        <ele>152</ele>
        <time>2025-04-09T11:42:38Z</time>
      </trkpt>
      <trkpt lat="43.64093" lon="1.37577">
        <ele>153</ele>
        <time>2025-04-09T11:42:39Z</time>
      </trkpt>
      <trkpt lat="43.64095" lon="1.37579">
        <ele>153</ele>
        <time>2025-04-09T11:42:40Z</time>
      </trkpt>
      <trkpt lat="43.64099" lon="1.3758">
        <ele>153</ele>
        <time>2025-04-09T11:42:41Z</time>
      </trkpt>
      <trkpt lat="43.641" lon="1.37581">
        <ele>152</ele>
        <time>2025-04-09T11:42:42Z</time>
      </trkpt>
      <trkpt lat="43.64102" lon="1.37582">
        <ele>152</ele>
        <time>2025-04-09T11:42:43Z</time>
      </trkpt>
      <trkpt lat="43.64105" lon="1.37583">
        <ele>152</ele>
        <time>2025-04-09T11:42:44Z</time>
      </trkpt>
      <trkpt lat="43.64107" lon="1.37584">
        <ele>152</ele>
        <time>2025-04-09T11:42:45Z</time>
      </trkpt>
      <trkpt lat="43.6411" lon="1.37585">
        <ele>152</ele>
        <time>2025-04-09T11:42:46Z</time>
      </trkpt>
      <trkpt lat="43.64112" lon="1.37585">
        <ele>152</ele>
        <time>2025-04-09T11:42:47Z</time>
      </trkpt>
      <trkpt lat="43.64114" lon="1.37586">
        <ele>152</ele>
        <time>2025-04-09T11:42:48Z</time>
      </trkpt>
      <trkpt lat="43.64117" lon="1.37587">
        <ele>152</ele>
        <time>2025-04-09T11:42:49Z</time>
      </trkpt>
      <trkpt lat="43.64119" lon="1.37586">
        <ele>152</ele>
        <time>2025-04-09T11:42:50Z</time>
      </trkpt>
      <trkpt lat="43.64122" lon="1.37585">
        <ele>152</ele>
        <time>2025-04-09T11:42:51Z</time>
      </trkpt>
      <trkpt lat="43.64125" lon="1.37585">
        <ele>152</ele>
        <time>2025-04-09T11:42:52Z</time>
      </trkpt>
      <trkpt lat="43.64127" lon="1.37584">
        <ele>152</ele>
        <time>2025-04-09T11:42:53Z</time>
      </trkpt>
      <trkpt lat="43.6413" lon="1.37584">
        <ele>152</ele>
        <time>2025-04-09T11:42:54Z</time>
      </trkpt>
      <trkpt lat="43.64133" lon="1.37585">
        <ele>152</ele>
        <time>2025-04-09T11:42:55Z</time>
      </trkpt>
      <trkpt lat="43.64136" lon="1.37586">
        <ele>152</ele>
        <time>2025-04-09T11:42:56Z</time>
      </trkpt>
      <trkpt lat="43.6414" lon="1.37587">
        <ele>152</ele>
        <time>2025-04-09T11:42:57Z</time>
      </trkpt>
      <trkpt lat="43.64142" lon="1.37587">
        <ele>152</ele>
        <time>2025-04-09T11:42:58Z</time>
      </trkpt>
      <trkpt lat="43.64145" lon="1.37589">
        <ele>152</ele>
        <time>2025-04-09T11:42:59Z</time>
      </trkpt>
      <trkpt lat="43.64148" lon="1.37592">
        <ele>152</ele>
        <time>2025-04-09T11:43:00Z</time>
      </trkpt>
      <trkpt lat="43.64149" lon="1.37593">
        <ele>152</ele>
        <time>2025-04-09T11:43:01Z</time>
      </trkpt>
      <trkpt lat="43.64151" lon="1.37596">
        <ele>152</ele>
        <time>2025-04-09T11:43:02Z</time>
      </trkpt>
      <trkpt lat="43.64153" lon="1.37598">
        <ele>152</ele>
        <time>2025-04-09T11:43:03Z</time>
      </trkpt>
      <trkpt lat="43.64155" lon="1.37601">
        <ele>152</ele>
        <time>2025-04-09T11:43:04Z</time>
      </trkpt>
      <trkpt lat="43.64155" lon="1.37601">
        <ele>152</ele>
        <time>2025-04-09T11:43:05Z</time>
      </trkpt>
      <trkpt lat="43.64158" lon="1.37605">
        <ele>152</ele>
        <time>2025-04-09T11:43:06Z</time>
      </trkpt>
      <trkpt lat="43.64162" lon="1.3761">
        <ele>152</ele>
        <time>2025-04-09T11:43:07Z</time>
      </trkpt>
      <trkpt lat="43.64164" lon="1.37613">
        <ele>152</ele>
        <time>2025-04-09T11:43:08Z</time>
      </trkpt>
      <trkpt lat="43.64166" lon="1.37616">
        <ele>152</ele>
        <time>2025-04-09T11:43:09Z</time>
      </trkpt>
      <trkpt lat="43.64168" lon="1.37618">
        <ele>152</ele>
        <time>2025-04-09T11:43:11Z</time>
      </trkpt>
      <trkpt lat="43.64169" lon="1.3762">
        <ele>152</ele>
        <time>2025-04-09T11:43:12Z</time>
      </trkpt>
      <trkpt lat="43.64171" lon="1.37621">
        <ele>152</ele>
        <time>2025-04-09T11:43:13Z</time>
      </trkpt>
      <trkpt lat="43.64178" lon="1.37627">
        <ele>152</ele>
        <time>2025-04-09T11:43:14Z</time>
      </trkpt>
      <trkpt lat="43.64181" lon="1.37628">
        <ele>152</ele>
        <time>2025-04-09T11:43:15Z</time>
      </trkpt>
      <trkpt lat="43.64184" lon="1.3763">
        <ele>152</ele>
        <time>2025-04-09T11:43:16Z</time>
      </trkpt>
      <trkpt lat="43.64186" lon="1.37629">
        <ele>152</ele>
        <time>2025-04-09T11:43:18Z</time>
      </trkpt>
      <trkpt lat="43.64189" lon="1.37629">
        <ele>152</ele>
        <time>2025-04-09T11:43:20Z</time>
      </trkpt>
      <trkpt lat="43.64191" lon="1.37628">
        <ele>152</ele>
        <time>2025-04-09T11:43:21Z</time>
      </trkpt>
      <trkpt lat="43.64193" lon="1.37628">
        <ele>152</ele>
        <time>2025-04-09T11:43:22Z</time>
      </trkpt>
      <trkpt lat="43.64195" lon="1.37627">
        <ele>152</ele>
        <time>2025-04-09T11:43:24Z</time>
      </trkpt>
      <trkpt lat="43.64197" lon="1.37625">
        <ele>152</ele>
        <time>2025-04-09T11:43:25Z</time>
      </trkpt>
      <trkpt lat="43.64198" lon="1.37624">
        <ele>152</ele>
        <time>2025-04-09T11:43:26Z</time>
      </trkpt>
      <trkpt lat="43.64203" lon="1.37621">
        <ele>152</ele>
        <time>2025-04-09T11:43:27Z</time>
      </trkpt>
      <trkpt lat="43.64203" lon="1.37621">
        <ele>152</ele>
        <time>2025-04-09T11:43:28Z</time>
      </trkpt>
      <trkpt lat="43.64203" lon="1.37621">
        <ele>152</ele>
        <time>2025-04-09T11:43:29Z</time>
      </trkpt>
      <trkpt lat="43.64214" lon="1.37616">
        <ele>152</ele>
        <time>2025-04-09T11:43:31Z</time>
      </trkpt>
      <trkpt lat="43.64215" lon="1.37615">
        <ele>152</ele>
        <time>2025-04-09T11:43:32Z</time>
      </trkpt>
      <trkpt lat="43.64216" lon="1.37614">
        <ele>153</ele>
        <time>2025-04-09T11:43:33Z</time>
      </trkpt>
      <trkpt lat="43.64217" lon="1.37614">
        <ele>153</ele>
        <time>2025-04-09T11:43:34Z</time>
      </trkpt>
      <trkpt lat="43.64218" lon="1.37613">
        <ele>153</ele>
        <time>2025-04-09T11:43:35Z</time>
      </trkpt>
      <trkpt lat="43.64225" lon="1.37609">
        <ele>153</ele>
        <time>2025-04-09T11:43:36Z</time>
      </trkpt>
      <trkpt lat="43.64227" lon="1.37608">
        <ele>153</ele>
        <time>2025-04-09T11:43:38Z</time>
      </trkpt>
      <trkpt lat="43.64229" lon="1.37606">
        <ele>153</ele>
        <time>2025-04-09T11:43:39Z</time>
      </trkpt>
      <trkpt lat="43.64231" lon="1.37605">
        <ele>153</ele>
        <time>2025-04-09T11:43:40Z</time>
      </trkpt>
      <trkpt lat="43.64233" lon="1.37604">
        <ele>153</ele>
        <time>2025-04-09T11:43:41Z</time>
      </trkpt>
      <trkpt lat="43.64236" lon="1.37602">
        <ele>153</ele>
        <time>2025-04-09T11:43:43Z</time>
      </trkpt>
      <trkpt lat="43.64239" lon="1.37599">
        <ele>153</ele>
        <time>2025-04-09T11:43:44Z</time>
      </trkpt>
      <trkpt lat="43.64245" lon="1.37595">
        <ele>153</ele>
        <time>2025-04-09T11:43:45Z</time>
      </trkpt>
      <trkpt lat="43.64247" lon="1.37594">
        <ele>153</ele>
        <time>2025-04-09T11:43:46Z</time>
      </trkpt>
      <trkpt lat="43.64249" lon="1.37593">
        <ele>153</ele>
        <time>2025-04-09T11:43:47Z</time>
      </trkpt>
      <trkpt lat="43.64251" lon="1.37592">
        <ele>153</ele>
        <time>2025-04-09T11:43:48Z</time>
      </trkpt>
      <trkpt lat="43.64255" lon="1.37592">
        <ele>153</ele>
        <time>2025-04-09T11:43:50Z</time>
      </trkpt>
      <trkpt lat="43.64258" lon="1.37592">
        <ele>153</ele>
        <time>2025-04-09T11:43:51Z</time>
      </trkpt>
      <trkpt lat="43.64261" lon="1.37592">
        <ele>153</ele>
        <time>2025-04-09T11:43:52Z</time>
      </trkpt>
      <trkpt lat="43.64263" lon="1.37592">
        <ele>153</ele>
        <time>2025-04-09T11:43:53Z</time>
      </trkpt>
      <trkpt lat="43.64265" lon="1.37592">
        <ele>153</ele>
        <time>2025-04-09T11:43:54Z</time>
      </trkpt>
      <trkpt lat="43.64268" lon="1.37593">
        <ele>153</ele>
        <time>2025-04-09T11:43:55Z</time>
      </trkpt>
      <trkpt lat="43.6427" lon="1.37593">
        <ele>153</ele>
        <time>2025-04-09T11:43:57Z</time>
      </trkpt>
      <trkpt lat="43.64272" lon="1.37593">
        <ele>153</ele>
        <time>2025-04-09T11:43:58Z</time>
      </trkpt>
      <trkpt lat="43.64274" lon="1.37594">
        <ele>153</ele>
        <time>2025-04-09T11:43:59Z</time>
      </trkpt>
      <trkpt lat="43.64277" lon="1.37594">
        <ele>153</ele>
        <time>2025-04-09T11:44:00Z</time>
      </trkpt>
      <trkpt lat="43.64279" lon="1.37595">
        <ele>153</ele>
        <time>2025-04-09T11:44:01Z</time>
      </trkpt>
      <trkpt lat="43.64281" lon="1.37596">
        <ele>153</ele>
        <time>2025-04-09T11:44:02Z</time>
      </trkpt>
      <trkpt lat="43.64283" lon="1.37597">
        <ele>153</ele>
        <time>2025-04-09T11:44:03Z</time>
      </trkpt>
      <trkpt lat="43.64285" lon="1.37597">
        <ele>153</ele>
        <time>2025-04-09T11:44:04Z</time>
      </trkpt>
      <trkpt lat="43.64287" lon="1.37598">
        <ele>153</ele>
        <time>2025-04-09T11:44:05Z</time>
      </trkpt>
      <trkpt lat="43.64294" lon="1.37602">
        <ele>153</ele>
        <time>2025-04-09T11:44:06Z</time>
      </trkpt>
      <trkpt lat="43.64296" lon="1.37603">
        <ele>153</ele>
        <time>2025-04-09T11:44:07Z</time>
      </trkpt>
      <trkpt lat="43.64297" lon="1.37603">
        <ele>153</ele>
        <time>2025-04-09T11:44:08Z</time>
      </trkpt>
      <trkpt lat="43.64306" lon="1.37608">
        <ele>153</ele>
        <time>2025-04-09T11:44:09Z</time>
      </trkpt>
      <trkpt lat="43.6431" lon="1.37611">
        <ele>153</ele>
        <time>2025-04-09T11:44:10Z</time>
      </trkpt>
      <trkpt lat="43.64312" lon="1.37615">
        <ele>153</ele>
        <time>2025-04-09T11:44:11Z</time>
      </trkpt>
      <trkpt lat="43.64314" lon="1.37618">
        <ele>153</ele>
        <time>2025-04-09T11:44:12Z</time>
      </trkpt>
      <trkpt lat="43.64316" lon="1.37621">
        <ele>153</ele>
        <time>2025-04-09T11:44:13Z</time>
      </trkpt>
      <trkpt lat="43.64317" lon="1.37624">
        <ele>153</ele>
        <time>2025-04-09T11:44:14Z</time>
      </trkpt>
      <trkpt lat="43.64318" lon="1.37627">
        <ele>153</ele>
        <time>2025-04-09T11:44:15Z</time>
      </trkpt>
      <trkpt lat="43.64318" lon="1.37631">
        <ele>153</ele>
        <time>2025-04-09T11:44:16Z</time>
      </trkpt>
      <trkpt lat="43.64319" lon="1.37634">
        <ele>153</ele>
        <time>2025-04-09T11:44:17Z</time>
      </trkpt>
      <trkpt lat="43.6432" lon="1.3764">
        <ele>153</ele>
        <time>2025-04-09T11:44:18Z</time>
      </trkpt>
      <trkpt lat="43.64321" lon="1.37647">
        <ele>153</ele>
        <time>2025-04-09T11:44:19Z</time>
      </trkpt>
      <trkpt lat="43.64321" lon="1.37647">
        <ele>153</ele>
        <time>2025-04-09T11:44:20Z</time>
      </trkpt>
      <trkpt lat="43.64321" lon="1.37647">
        <ele>153</ele>
        <time>2025-04-09T11:44:21Z</time>
      </trkpt>
      <trkpt lat="43.64325" lon="1.37659">
        <ele>153</ele>
        <time>2025-04-09T11:44:23Z</time>
      </trkpt>
      <trkpt lat="43.64326" lon="1.37661">
        <ele>153</ele>
        <time>2025-04-09T11:44:24Z</time>
      </trkpt>
      <trkpt lat="43.64328" lon="1.37664">
        <ele>153</ele>
        <time>2025-04-09T11:44:25Z</time>
      </trkpt>
      <trkpt lat="43.64329" lon="1.37667">
        <ele>153</ele>
        <time>2025-04-09T11:44:26Z</time>
      </trkpt>
      <trkpt lat="43.6433" lon="1.37669">
        <ele>152</ele>
        <time>2025-04-09T11:44:27Z</time>
      </trkpt>
      <trkpt lat="43.64332" lon="1.37673">
        <ele>152</ele>
        <time>2025-04-09T11:44:28Z</time>
      </trkpt>
      <trkpt lat="43.64333" lon="1.37677">
        <ele>152</ele>
        <time>2025-04-09T11:44:30Z</time>
      </trkpt>
      <trkpt lat="43.64335" lon="1.3768">
        <ele>152</ele>
        <time>2025-04-09T11:44:31Z</time>
      </trkpt>
      <trkpt lat="43.64336" lon="1.37684">
        <ele>152</ele>
        <time>2025-04-09T11:44:32Z</time>
      </trkpt>
      <trkpt lat="43.64336" lon="1.37687">
        <ele>152</ele>
        <time>2025-04-09T11:44:33Z</time>
      </trkpt>
      <trkpt lat="43.64337" lon="1.3769">
        <ele>152</ele>
        <time>2025-04-09T11:44:34Z</time>
      </trkpt>
      <trkpt lat="43.64338" lon="1.37694">
        <ele>152</ele>
        <time>2025-04-09T11:44:35Z</time>
      </trkpt>
      <trkpt lat="43.64338" lon="1.37697">
        <ele>152</ele>
        <time>2025-04-09T11:44:36Z</time>
      </trkpt>
      <trkpt lat="43.6434" lon="1.37703">
        <ele>152</ele>
        <time>2025-04-09T11:44:37Z</time>
      </trkpt>
      <trkpt lat="43.64341" lon="1.37709">
        <ele>152</ele>
        <time>2025-04-09T11:44:38Z</time>
      </trkpt>
      <trkpt lat="43.64342" lon="1.37712">
        <ele>152</ele>
        <time>2025-04-09T11:44:39Z</time>
      </trkpt>
      <trkpt lat="43.64344" lon="1.37715">
        <ele>152</ele>
        <time>2025-04-09T11:44:40Z</time>
      </trkpt>
      <trkpt lat="43.64346" lon="1.37718">
        <ele>152</ele>
        <time>2025-04-09T11:44:41Z</time>
      </trkpt>
      <trkpt lat="43.64347" lon="1.3772">
        <ele>152</ele>
        <time>2025-04-09T11:44:42Z</time>
      </trkpt>
      <trkpt lat="43.64349" lon="1.3772">
        <ele>152</ele>
        <time>2025-04-09T11:44:43Z</time>
      </trkpt>
      <trkpt lat="43.6435" lon="1.3772">
        <ele>152</ele>
        <time>2025-04-09T11:44:44Z</time>
      </trkpt>
      <trkpt lat="43.64351" lon="1.3772">
        <ele>152</ele>
        <time>2025-04-09T11:44:45Z</time>
      </trkpt>
      <trkpt lat="43.64353" lon="1.37721">
        <ele>152</ele>
        <time>2025-04-09T11:44:46Z</time>
      </trkpt>
      <trkpt lat="43.64361" lon="1.3772">
        <ele>152</ele>
        <time>2025-04-09T11:44:47Z</time>
      </trkpt>
      <trkpt lat="43.64365" lon="1.3772">
        <ele>151</ele>
        <time>2025-04-09T11:44:49Z</time>
      </trkpt>
      <trkpt lat="43.64368" lon="1.37719">
        <ele>151</ele>
        <time>2025-04-09T11:44:50Z</time>
      </trkpt>
      <trkpt lat="43.6437" lon="1.3772">
        <ele>151</ele>
        <time>2025-04-09T11:44:51Z</time>
      </trkpt>
      <trkpt lat="43.64372" lon="1.37722">
        <ele>151</ele>
        <time>2025-04-09T11:44:52Z</time>
      </trkpt>
      <trkpt lat="43.64374" lon="1.37723">
        <ele>150</ele>
        <time>2025-04-09T11:44:53Z</time>
      </trkpt>
      <trkpt lat="43.64376" lon="1.37725">
        <ele>150</ele>
        <time>2025-04-09T11:44:54Z</time>
      </trkpt>
      <trkpt lat="43.64379" lon="1.37726">
        <ele>150</ele>
        <time>2025-04-09T11:44:55Z</time>
      </trkpt>
      <trkpt lat="43.6438" lon="1.37728">
        <ele>150</ele>
        <time>2025-04-09T11:44:56Z</time>
      </trkpt>
      <trkpt lat="43.64383" lon="1.3773">
        <ele>150</ele>
        <time>2025-04-09T11:44:57Z</time>
      </trkpt>
      <trkpt lat="43.64385" lon="1.37733">
        <ele>150</ele>
        <time>2025-04-09T11:44:58Z</time>
      </trkpt>
      <trkpt lat="43.64386" lon="1.37736">
        <ele>150</ele>
        <time>2025-04-09T11:44:59Z</time>
      </trkpt>
      <trkpt lat="43.64388" lon="1.37739">
        <ele>150</ele>
        <time>2025-04-09T11:45:00Z</time>
      </trkpt>
      <trkpt lat="43.64388" lon="1.37743">
        <ele>150</ele>
        <time>2025-04-09T11:45:01Z</time>
      </trkpt>
      <trkpt lat="43.64389" lon="1.37745">
        <ele>150</ele>
        <time>2025-04-09T11:45:02Z</time>
      </trkpt>
      <trkpt lat="43.6439" lon="1.37749">
        <ele>150</ele>
        <time>2025-04-09T11:45:03Z</time>
      </trkpt>
      <trkpt lat="43.64392" lon="1.37752">
        <ele>151</ele>
        <time>2025-04-09T11:45:04Z</time>
      </trkpt>
      <trkpt lat="43.64393" lon="1.37755">
        <ele>151</ele>
        <time>2025-04-09T11:45:05Z</time>
      </trkpt>
      <trkpt lat="43.64394" lon="1.37758">
        <ele>151</ele>
        <time>2025-04-09T11:45:06Z</time>
      </trkpt>
      <trkpt lat="43.64396" lon="1.3776">
        <ele>151</ele>
        <time>2025-04-09T11:45:07Z</time>
      </trkpt>
      <trkpt lat="43.64397" lon="1.37762">
        <ele>150</ele>
        <time>2025-04-09T11:45:08Z</time>
      </trkpt>
      <trkpt lat="43.64399" lon="1.37765">
        <ele>150</ele>
        <time>2025-04-09T11:45:09Z</time>
      </trkpt>
      <trkpt lat="43.644" lon="1.37768">
        <ele>150</ele>
        <time>2025-04-09T11:45:10Z</time>
      </trkpt>
      <trkpt lat="43.64402" lon="1.37774">
        <ele>150</ele>
        <time>2025-04-09T11:45:11Z</time>
      </trkpt>
      <trkpt lat="43.64402" lon="1.37774">
        <ele>149</ele>
        <time>2025-04-09T11:45:12Z</time>
      </trkpt>
      <trkpt lat="43.64403" lon="1.37778">
        <ele>149</ele>
        <time>2025-04-09T11:45:13Z</time>
      </trkpt>
      <trkpt lat="43.64405" lon="1.37782">
        <ele>149</ele>
        <time>2025-04-09T11:45:14Z</time>
      </trkpt>
      <trkpt lat="43.64406" lon="1.37785">
        <ele>149</ele>
        <time>2025-04-09T11:45:15Z</time>
      </trkpt>
      <trkpt lat="43.64408" lon="1.37789">
        <ele>149</ele>
        <time>2025-04-09T11:45:16Z</time>
      </trkpt>
      <trkpt lat="43.64409" lon="1.3779">
        <ele>148</ele>
        <time>2025-04-09T11:45:17Z</time>
      </trkpt>
      <trkpt lat="43.64411" lon="1.37792">
        <ele>148</ele>
        <time>2025-04-09T11:45:18Z</time>
      </trkpt>
      <trkpt lat="43.64414" lon="1.37794">
        <ele>149</ele>
        <time>2025-04-09T11:45:19Z</time>
      </trkpt>
      <trkpt lat="43.64416" lon="1.37797">
        <ele>149</ele>
        <time>2025-04-09T11:45:20Z</time>
      </trkpt>
      <trkpt lat="43.64418" lon="1.37799">
        <ele>149</ele>
        <time>2025-04-09T11:45:21Z</time>
      </trkpt>
      <trkpt lat="43.64421" lon="1.37801">
        <ele>148</ele>
        <time>2025-04-09T11:45:22Z</time>
      </trkpt>
      <trkpt lat="43.64424" lon="1.37803">
        <ele>148</ele>
        <time>2025-04-09T11:45:23Z</time>
      </trkpt>
      <trkpt lat="43.64427" lon="1.37804">
        <ele>148</ele>
        <time>2025-04-09T11:45:24Z</time>
      </trkpt>
      <trkpt lat="43.64429" lon="1.37805">
        <ele>148</ele>
        <time>2025-04-09T11:45:25Z</time>
      </trkpt>
    </trkseg>
  </trk>
</gpx>